FDX3 LFPG-KMEM
Flight info
| Callsign | FDX3 |
|---|---|
| Flight time | 9h 23m |
| Altitude | 34000 |
| Route | ELCOB UT300 SENLO DCT JSY DCT LIZAD DCT LESLU DCT DOGAL/M084F350 DCT 54N020W 53N030W 5130N04000W 50N050W DCT ELSIR/N0476F360 N414A ANATI DCT POLTY/N0489F380 Q804 DERLO Q907 SVM DCT FWA DCT VHP DCT PXV BLUZZ5 |
| Aircraft | MD11/H-SDE1E2E3FGHIJ2J3J4J5M1RWXY/LB1D1 |
Departure
| Time | 2026-05-07 03:26 |
|---|---|
| Airport | Charles de Gaulle International Airport (LFPG) |
Arrival
| Time | 2026-05-07 12:50 |
|---|---|
| Airport | Memphis International Airport (KMEM) |
| Time | Latitude | Longitude | Altitude | Speed | Heading |
|---|---|---|---|---|---|
| 2026-05-07 02:27 | 49.01145 | 2.50273 | 340 ft | 0 kts | 265° |
| 2026-05-07 03:07 | 49.01145 | 2.50274 | 340 ft | 1 kts | 265° |
| 2026-05-07 03:08 | 49.01147 | 2.50293 | 340 ft | 2 kts | 263° |
| 2026-05-07 03:08 | 49.01148 | 2.50315 | 340 ft | 2 kts | 265° |
| 2026-05-07 03:08 | 49.01149 | 2.50338 | 341 ft | 2 kts | 275° |
| 2026-05-07 03:08 | 49.01146 | 2.50360 | 341 ft | 2 kts | 292° |
| 2026-05-07 03:09 | 49.01139 | 2.50380 | 341 ft | 2 kts | 307° |
| 2026-05-07 03:09 | 49.01128 | 2.50397 | 341 ft | 2 kts | 322° |
| 2026-05-07 03:09 | 49.01115 | 2.50409 | 340 ft | 2 kts | 338° |
| 2026-05-07 03:09 | 49.01101 | 2.50415 | 340 ft | 1 kts | 353° |
| 2026-05-07 03:10 | 49.01096 | 2.50416 | 340 ft | 0 kts | 356° |
| 2026-05-07 03:13 | 49.01105 | 2.50415 | 340 ft | 3 kts | 356° |
| 2026-05-07 03:13 | 49.01138 | 2.50411 | 341 ft | 5 kts | 356° |
| 2026-05-07 03:13 | 49.01181 | 2.50407 | 341 ft | 7 kts | 355° |
| 2026-05-07 03:14 | 49.01231 | 2.50400 | 342 ft | 8 kts | 355° |
| 2026-05-07 03:14 | 49.01289 | 2.50392 | 343 ft | 10 kts | 355° |
| 2026-05-07 03:14 | 49.01421 | 2.50428 | 345 ft | 9 kts | 62° |
| 2026-05-07 03:15 | 49.01435 | 2.50524 | 346 ft | 9 kts | 84° |
| 2026-05-07 03:15 | 49.01440 | 2.50621 | 347 ft | 9 kts | 87° |
| 2026-05-07 03:15 | 49.01444 | 2.50723 | 348 ft | 9 kts | 86° |
| 2026-05-07 03:15 | 49.01448 | 2.50827 | 350 ft | 9 kts | 86° |
| 2026-05-07 03:16 | 49.01454 | 2.50939 | 352 ft | 11 kts | 86° |
| 2026-05-07 03:16 | 49.01461 | 2.51073 | 354 ft | 13 kts | 85° |
| 2026-05-07 03:16 | 49.01472 | 2.51223 | 358 ft | 13 kts | 71° |
| 2026-05-07 03:16 | 49.01538 | 2.51291 | 361 ft | 11 kts | 6° |
| 2026-05-07 03:17 | 49.01610 | 2.51286 | 362 ft | 9 kts | 355° |
| 2026-05-07 03:17 | 49.01654 | 2.51329 | 365 ft | 7 kts | 72° |
| 2026-05-07 03:17 | 49.01662 | 2.51419 | 367 ft | 10 kts | 86° |
| 2026-05-07 03:17 | 49.01667 | 2.51546 | 369 ft | 13 kts | 86° |
| 2026-05-07 03:18 | 49.01677 | 2.51718 | 370 ft | 18 kts | 85° |
| 2026-05-07 03:18 | 49.01688 | 2.51918 | 371 ft | 19 kts | 85° |
| 2026-05-07 03:18 | 49.01699 | 2.52119 | 371 ft | 19 kts | 85° |
| 2026-05-07 03:18 | 49.01711 | 2.52325 | 372 ft | 19 kts | 85° |
| 2026-05-07 03:19 | 49.01721 | 2.52532 | 373 ft | 20 kts | 86° |
| 2026-05-07 03:19 | 49.01731 | 2.52749 | 372 ft | 20 kts | 86° |
| 2026-05-07 03:19 | 49.01743 | 2.52970 | 373 ft | 20 kts | 85° |
| 2026-05-07 03:19 | 49.01756 | 2.53182 | 376 ft | 19 kts | 85° |
| 2026-05-07 03:20 | 49.01767 | 2.53393 | 376 ft | 20 kts | 85° |
| 2026-05-07 03:20 | 49.01780 | 2.53649 | 365 ft | 26 kts | 85° |
| 2026-05-07 03:20 | 49.01797 | 2.53928 | 363 ft | 27 kts | 86° |
| 2026-05-07 03:20 | 49.01812 | 2.54221 | 362 ft | 27 kts | 86° |
| 2026-05-07 03:21 | 49.01827 | 2.54520 | 361 ft | 28 kts | 85° |
| 2026-05-07 03:21 | 49.01842 | 2.54799 | 374 ft | 22 kts | 85° |
| 2026-05-07 03:21 | 49.01852 | 2.54998 | 380 ft | 15 kts | 85° |
| 2026-05-07 03:21 | 49.01902 | 2.55098 | 382 ft | 12 kts | 6° |
| 2026-05-07 03:22 | 49.01978 | 2.55079 | 384 ft | 10 kts | 346° |
| 2026-05-07 03:22 | 49.02031 | 2.55115 | 386 ft | 8 kts | 61° |
| 2026-05-07 03:22 | 49.02045 | 2.55204 | 387 ft | 8 kts | 85° |
| 2026-05-07 03:22 | 49.02049 | 2.55300 | 387 ft | 10 kts | 86° |
| 2026-05-07 03:23 | 49.02056 | 2.55431 | 387 ft | 14 kts | 86° |
| 2026-05-07 03:23 | 49.02066 | 2.55601 | 386 ft | 17 kts | 85° |
| 2026-05-07 03:23 | 49.02077 | 2.55778 | 388 ft | 16 kts | 85° |
| 2026-05-07 03:23 | 49.02085 | 2.55949 | 389 ft | 16 kts | 86° |
| 2026-05-07 03:24 | 49.02092 | 2.56112 | 390 ft | 13 kts | 86° |
| 2026-05-07 03:24 | 49.02113 | 2.56246 | 390 ft | 12 kts | 56° |
| 2026-05-07 03:24 | 49.02178 | 2.56301 | 394 ft | 9 kts | 4° |
| 2026-05-07 03:24 | 49.02229 | 2.56288 | 397 ft | 5 kts | 338° |
| 2026-05-07 03:25 | 49.02264 | 2.56251 | 399 ft | 8 kts | 313° |
| 2026-05-07 03:25 | 49.02307 | 2.56141 | 399 ft | 14 kts | 290° |
| 2026-05-07 03:25 | 49.02314 | 2.56038 | 398 ft | 10 kts | 268° |
| 2026-05-07 03:25 | 49.02294 | 2.55656 | 396 ft | 73 kts | 265° |
| 2026-05-07 03:26 | 49.02234 | 2.54517 | 387 ft | 142 kts | 266° |
| 2026-05-07 03:26 | 49.02139 | 2.52715 | 415 ft | 191 kts | 265° |
| 2026-05-07 03:26 | 49.02014 | 2.50670 | 900 ft | 195 kts | 267° |
| 2026-05-07 03:26 | 49.01891 | 2.48587 | 1500 ft | 200 kts | 266° |
| 2026-05-07 03:27 | 49.01745 | 2.46474 | 2134 ft | 202 kts | 266° |
| 2026-05-07 03:27 | 49.01577 | 2.44389 | 2696 ft | 198 kts | 265° |
| 2026-05-07 03:27 | 49.01410 | 2.42324 | 3164 ft | 196 kts | 271° |
| 2026-05-07 03:27 | 49.01411 | 2.40246 | 3573 ft | 198 kts | 272° |
| 2026-05-07 03:28 | 49.01409 | 2.38058 | 3710 ft | 218 kts | 272° |
| 2026-05-07 03:28 | 49.01400 | 2.35653 | 4014 ft | 232 kts | 272° |
| 2026-05-07 03:28 | 49.01493 | 2.33191 | 4469 ft | 237 kts | 281° |
| 2026-05-07 03:28 | 49.01821 | 2.30732 | 4931 ft | 245 kts | 283° |
| 2026-05-07 03:29 | 49.02171 | 2.28113 | 5235 ft | 261 kts | 282° |
| 2026-05-07 03:29 | 49.02534 | 2.25314 | 5702 ft | 274 kts | 282° |
| 2026-05-07 03:29 | 49.02898 | 2.22427 | 6279 ft | 284 kts | 282° |
| 2026-05-07 03:29 | 49.03268 | 2.19405 | 6945 ft | 291 kts | 281° |
| 2026-05-07 03:30 | 49.03626 | 2.16392 | 7638 ft | 297 kts | 281° |
| 2026-05-07 03:30 | 49.03978 | 2.13268 | 8377 ft | 301 kts | 278° |
| 2026-05-07 03:30 | 49.04164 | 2.10088 | 9121 ft | 305 kts | 270° |
| 2026-05-07 03:30 | 49.04141 | 2.06869 | 9862 ft | 308 kts | 271° |
| 2026-05-07 03:31 | 49.04259 | 2.03584 | 10644 ft | 309 kts | 276° |
| 2026-05-07 03:31 | 49.04486 | 2.00256 | 11024 ft | 326 kts | 276° |
| 2026-05-07 03:31 | 49.04715 | 1.96726 | 11253 ft | 348 kts | 275° |
| 2026-05-07 03:31 | 49.04901 | 1.92919 | 11451 ft | 369 kts | 275° |
| 2026-05-07 03:32 | 49.05089 | 1.88931 | 11692 ft | 387 kts | 275° |
| 2026-05-07 03:32 | 49.05296 | 1.84783 | 12264 ft | 396 kts | 275° |
| 2026-05-07 03:32 | 49.05513 | 1.80580 | 12939 ft | 402 kts | 275° |
| 2026-05-07 03:32 | 49.05741 | 1.76272 | 13637 ft | 406 kts | 275° |
| 2026-05-07 03:33 | 49.05972 | 1.71953 | 14328 ft | 410 kts | 275° |
| 2026-05-07 03:33 | 49.06207 | 1.67590 | 15019 ft | 414 kts | 275° |
| 2026-05-07 03:33 | 49.06377 | 1.63211 | 15646 ft | 418 kts | 271° |
| 2026-05-07 03:33 | 49.06221 | 1.58736 | 16275 ft | 423 kts | 264° |
| 2026-05-07 03:34 | 49.05833 | 1.54288 | 16926 ft | 426 kts | 263° |
| 2026-05-07 03:34 | 49.05424 | 1.49762 | 17551 ft | 429 kts | 263° |
| 2026-05-07 03:34 | 49.05033 | 1.45260 | 18164 ft | 433 kts | 263° |
| 2026-05-07 03:34 | 49.04650 | 1.40696 | 18759 ft | 437 kts | 263° |
| 2026-05-07 03:35 | 49.04267 | 1.36020 | 19378 ft | 440 kts | 264° |
| 2026-05-07 03:35 | 49.03891 | 1.31359 | 19954 ft | 443 kts | 263° |
| 2026-05-07 03:35 | 49.03576 | 1.26716 | 20495 ft | 447 kts | 265° |
| 2026-05-07 03:35 | 49.03390 | 1.22006 | 21047 ft | 450 kts | 268° |
| 2026-05-07 03:36 | 49.03352 | 1.17171 | 21577 ft | 453 kts | 271° |
| 2026-05-07 03:36 | 49.03444 | 1.12338 | 22114 ft | 456 kts | 272° |
| 2026-05-07 03:36 | 49.03553 | 1.07508 | 22641 ft | 459 kts | 272° |
| 2026-05-07 03:36 | 49.03664 | 1.02614 | 23152 ft | 463 kts | 272° |
| 2026-05-07 03:37 | 49.03772 | 0.97735 | 23659 ft | 466 kts | 272° |
| 2026-05-07 03:37 | 49.03883 | 0.92707 | 24170 ft | 469 kts | 272° |
| 2026-05-07 03:37 | 49.03994 | 0.87711 | 24652 ft | 472 kts | 272° |
| 2026-05-07 03:37 | 49.04107 | 0.82705 | 25128 ft | 474 kts | 272° |
| 2026-05-07 03:38 | 49.04223 | 0.77638 | 25592 ft | 477 kts | 272° |
| 2026-05-07 03:38 | 49.04316 | 0.73635 | 25943 ft | 480 kts | 272° |
| 2026-05-07 03:38 | 49.04401 | 0.70003 | 26291 ft | 481 kts | 272° |
| 2026-05-07 03:38 | 49.04523 | 0.64907 | 26792 ft | 482 kts | 273° |
| 2026-05-07 03:39 | 49.04647 | 0.59806 | 27333 ft | 482 kts | 273° |
| 2026-05-07 03:39 | 49.04775 | 0.54643 | 27967 ft | 479 kts | 273° |
| 2026-05-07 03:39 | 49.04902 | 0.49573 | 28564 ft | 477 kts | 273° |
| 2026-05-07 03:39 | 49.05032 | 0.44509 | 29133 ft | 475 kts | 273° |
| 2026-05-07 03:40 | 49.05164 | 0.39474 | 29667 ft | 473 kts | 273° |
| 2026-05-07 03:40 | 49.05298 | 0.34470 | 30156 ft | 472 kts | 272° |
| 2026-05-07 03:40 | 49.05432 | 0.29490 | 30629 ft | 471 kts | 272° |
| 2026-05-07 03:40 | 49.05568 | 0.24517 | 31079 ft | 469 kts | 273° |
| 2026-05-07 03:41 | 49.05703 | 0.19607 | 31512 ft | 468 kts | 273° |
| 2026-05-07 03:41 | 49.05842 | 0.14687 | 31910 ft | 466 kts | 273° |
| 2026-05-07 03:41 | 49.05985 | 0.09737 | 32290 ft | 465 kts | 273° |
| 2026-05-07 03:41 | 49.06128 | 0.04844 | 32627 ft | 464 kts | 273° |
| 2026-05-07 03:42 | 49.06274 | -0.00120 | 32951 ft | 463 kts | 273° |
| 2026-05-07 03:42 | 49.06421 | -0.04988 | 33257 ft | 462 kts | 273° |
| 2026-05-07 03:42 | 49.06570 | -0.09906 | 33551 ft | 461 kts | 273° |
| 2026-05-07 03:42 | 49.06721 | -0.14792 | 33828 ft | 461 kts | 273° |
| 2026-05-07 03:43 | 49.06840 | -0.19709 | 34024 ft | 462 kts | 272° |
| 2026-05-07 03:43 | 49.06994 | -0.29524 | 34026 ft | 464 kts | 271° |
| 2026-05-07 03:44 | 49.07087 | -0.39300 | 34027 ft | 460 kts | 271° |
| 2026-05-07 03:44 | 49.07204 | -0.49005 | 34028 ft | 458 kts | 272° |
| 2026-05-07 03:45 | 49.07339 | -0.58741 | 34022 ft | 458 kts | 272° |
| 2026-05-07 03:45 | 49.07481 | -0.68442 | 34018 ft | 459 kts | 271° |
| 2026-05-07 03:46 | 49.07630 | -0.78168 | 34014 ft | 459 kts | 271° |
| 2026-05-07 03:46 | 49.07788 | -0.87874 | 34012 ft | 459 kts | 272° |
| 2026-05-07 03:47 | 49.07954 | -0.97621 | 34018 ft | 459 kts | 272° |
| 2026-05-07 03:47 | 49.08128 | -1.07350 | 34021 ft | 459 kts | 272° |
| 2026-05-07 03:48 | 49.08599 | -1.17023 | 34017 ft | 459 kts | 277° |
| 2026-05-07 03:48 | 49.09764 | -1.26567 | 34020 ft | 458 kts | 283° |
| 2026-05-07 03:49 | 49.11228 | -1.36021 | 34017 ft | 458 kts | 283° |
| 2026-05-07 03:49 | 49.12709 | -1.45478 | 34011 ft | 459 kts | 283° |
| 2026-05-07 03:50 | 49.14196 | -1.54953 | 34013 ft | 459 kts | 284° |
| 2026-05-07 03:50 | 49.15682 | -1.64380 | 34011 ft | 459 kts | 284° |
| 2026-05-07 03:51 | 49.17184 | -1.73859 | 34011 ft | 459 kts | 283° |
| 2026-05-07 03:51 | 49.18684 | -1.83274 | 34008 ft | 459 kts | 283° |
| 2026-05-07 03:52 | 49.20198 | -1.92740 | 34007 ft | 459 kts | 283° |
| 2026-05-07 03:52 | 49.21724 | -2.02220 | 34009 ft | 459 kts | 283° |
| 2026-05-07 03:53 | 49.23248 | -2.11650 | 34011 ft | 459 kts | 283° |
| 2026-05-07 03:53 | 49.24773 | -2.21107 | 34008 ft | 459 kts | 284° |
| 2026-05-07 03:54 | 49.26305 | -2.30567 | 34007 ft | 459 kts | 284° |
| 2026-05-07 03:54 | 49.27844 | -2.40012 | 34005 ft | 459 kts | 284° |
| 2026-05-07 03:55 | 49.29395 | -2.49484 | 34006 ft | 459 kts | 284° |
| 2026-05-07 03:55 | 49.30949 | -2.58937 | 34004 ft | 459 kts | 284° |
| 2026-05-07 03:56 | 49.32521 | -2.68451 | 34002 ft | 459 kts | 283° |
| 2026-05-07 03:56 | 49.34089 | -2.77882 | 34000 ft | 459 kts | 284° |
| 2026-05-07 03:57 | 49.35661 | -2.87303 | 34001 ft | 459 kts | 284° |
| 2026-05-07 03:57 | 49.37252 | -2.96781 | 33998 ft | 459 kts | 284° |
| 2026-05-07 03:58 | 49.38842 | -3.06218 | 33996 ft | 459 kts | 284° |
| 2026-05-07 03:58 | 49.40443 | -3.15665 | 33993 ft | 459 kts | 284° |
| 2026-05-07 03:59 | 49.42061 | -3.25172 | 33986 ft | 459 kts | 284° |
| 2026-05-07 03:59 | 49.43612 | -3.34650 | 33985 ft | 459 kts | 283° |
| 2026-05-07 04:00 | 49.45028 | -3.44185 | 33980 ft | 459 kts | 283° |
| 2026-05-07 04:00 | 49.46470 | -3.53707 | 33987 ft | 460 kts | 283° |
| 2026-05-07 04:01 | 49.47930 | -3.63218 | 33985 ft | 460 kts | 283° |
| 2026-05-07 04:01 | 49.49409 | -3.72779 | 33989 ft | 460 kts | 283° |
| 2026-05-07 04:02 | 49.50890 | -3.82311 | 33983 ft | 460 kts | 283° |
| 2026-05-07 04:02 | 49.52372 | -3.91804 | 33986 ft | 460 kts | 283° |
| 2026-05-07 04:03 | 49.53865 | -4.01326 | 33985 ft | 459 kts | 283° |
| 2026-05-07 04:03 | 49.55365 | -4.10835 | 33988 ft | 460 kts | 283° |
| 2026-05-07 04:04 | 49.56884 | -4.20415 | 33987 ft | 460 kts | 283° |
| 2026-05-07 04:04 | 49.58673 | -4.29782 | 33994 ft | 462 kts | 291° |
| 2026-05-07 04:05 | 49.61433 | -4.38709 | 33994 ft | 464 kts | 300° |
| 2026-05-07 04:05 | 49.64777 | -4.47185 | 33990 ft | 463 kts | 301° |
| 2026-05-07 04:06 | 49.68157 | -4.55682 | 33987 ft | 462 kts | 301° |
| 2026-05-07 04:06 | 49.71497 | -4.64086 | 33987 ft | 462 kts | 301° |
| 2026-05-07 04:07 | 49.74855 | -4.72526 | 33988 ft | 462 kts | 301° |
| 2026-05-07 04:07 | 49.78217 | -4.80958 | 33990 ft | 462 kts | 301° |
| 2026-05-07 04:08 | 49.81593 | -4.89407 | 33988 ft | 462 kts | 301° |
| 2026-05-07 04:08 | 49.84981 | -4.97871 | 33989 ft | 462 kts | 301° |
| 2026-05-07 04:09 | 49.88389 | -5.06369 | 33986 ft | 463 kts | 301° |
| 2026-05-07 04:09 | 49.91793 | -5.14843 | 33984 ft | 464 kts | 301° |
| 2026-05-07 04:10 | 49.95212 | -5.23337 | 33985 ft | 464 kts | 301° |
| 2026-05-07 04:10 | 49.98642 | -5.31842 | 33986 ft | 465 kts | 301° |
| 2026-05-07 04:11 | 50.02066 | -5.40319 | 33982 ft | 465 kts | 302° |
| 2026-05-07 04:11 | 50.05518 | -5.48852 | 33984 ft | 465 kts | 302° |
| 2026-05-07 04:12 | 50.08895 | -5.57415 | 33992 ft | 466 kts | 300° |
| 2026-05-07 04:12 | 50.12138 | -5.66043 | 33987 ft | 466 kts | 299° |
| 2026-05-07 04:13 | 50.15440 | -5.74755 | 33983 ft | 466 kts | 300° |
| 2026-05-07 04:13 | 50.18746 | -5.83425 | 33979 ft | 468 kts | 300° |
| 2026-05-07 04:14 | 50.22081 | -5.92147 | 33983 ft | 468 kts | 300° |
| 2026-05-07 04:14 | 50.25402 | -6.00812 | 33987 ft | 467 kts | 300° |
| 2026-05-07 04:15 | 50.28741 | -6.09510 | 33992 ft | 467 kts | 300° |
| 2026-05-07 04:15 | 50.32081 | -6.18199 | 33984 ft | 468 kts | 300° |
| 2026-05-07 04:16 | 50.35433 | -6.26900 | 33985 ft | 471 kts | 300° |
| 2026-05-07 04:16 | 50.38828 | -6.35699 | 33983 ft | 475 kts | 300° |
| 2026-05-07 04:17 | 50.42236 | -6.44517 | 33982 ft | 478 kts | 301° |
| 2026-05-07 04:17 | 50.45699 | -6.53444 | 33977 ft | 480 kts | 301° |
| 2026-05-07 04:18 | 50.49157 | -6.62348 | 33980 ft | 481 kts | 301° |
| 2026-05-07 04:18 | 50.52513 | -6.71391 | 33973 ft | 480 kts | 298° |
| 2026-05-07 04:19 | 50.55796 | -6.80511 | 33965 ft | 481 kts | 298° |
| 2026-05-07 04:19 | 50.59116 | -6.89656 | 33963 ft | 483 kts | 299° |
| 2026-05-07 04:20 | 50.62470 | -6.98829 | 33964 ft | 484 kts | 300° |
| 2026-05-07 04:20 | 50.65830 | -7.07997 | 33961 ft | 484 kts | 300° |
| 2026-05-07 04:21 | 50.70858 | -7.21701 | 33966 ft | 484 kts | 300° |
| 2026-05-07 04:21 | 50.74243 | -7.30886 | 33964 ft | 485 kts | 300° |
| 2026-05-07 04:22 | 50.77612 | -7.40023 | 33963 ft | 484 kts | 300° |
| 2026-05-07 04:22 | 50.81004 | -7.49205 | 33964 ft | 484 kts | 301° |
| 2026-05-07 04:23 | 50.84392 | -7.58347 | 33966 ft | 485 kts | 301° |
| 2026-05-07 04:23 | 50.87805 | -7.67534 | 33964 ft | 485 kts | 300° |
| 2026-05-07 04:24 | 50.91206 | -7.76683 | 33966 ft | 485 kts | 301° |
| 2026-05-07 04:24 | 50.94557 | -7.85956 | 33964 ft | 486 kts | 299° |
| 2026-05-07 04:25 | 50.97981 | -7.95161 | 33970 ft | 486 kts | 304° |
| 2026-05-07 04:25 | 51.01938 | -8.03820 | 33968 ft | 487 kts | 307° |
| 2026-05-07 04:26 | 51.06000 | -8.12399 | 33965 ft | 487 kts | 307° |
| 2026-05-07 04:26 | 51.10053 | -8.20968 | 33965 ft | 487 kts | 307° |
| 2026-05-07 04:27 | 51.14098 | -8.29520 | 33963 ft | 487 kts | 307° |
| 2026-05-07 04:27 | 51.18162 | -8.38102 | 33963 ft | 487 kts | 308° |
| 2026-05-07 04:28 | 51.22262 | -8.46740 | 33964 ft | 489 kts | 308° |
| 2026-05-07 04:28 | 51.26357 | -8.55354 | 33964 ft | 489 kts | 308° |
| 2026-05-07 04:29 | 51.30454 | -8.63959 | 33965 ft | 489 kts | 308° |
| 2026-05-07 04:29 | 51.34558 | -8.72568 | 33966 ft | 489 kts | 307° |
| 2026-05-07 04:30 | 51.38691 | -8.81221 | 33962 ft | 489 kts | 308° |
| 2026-05-07 04:30 | 51.42813 | -8.89839 | 33963 ft | 490 kts | 308° |
| 2026-05-07 04:31 | 51.46986 | -8.98552 | 33966 ft | 491 kts | 308° |
| 2026-05-07 04:31 | 51.51152 | -9.07233 | 33963 ft | 491 kts | 308° |
| 2026-05-07 04:32 | 51.55332 | -9.15938 | 33960 ft | 491 kts | 308° |
| 2026-05-07 04:32 | 51.59368 | -9.24844 | 33956 ft | 491 kts | 306° |
| 2026-05-07 04:33 | 51.63374 | -9.33747 | 33947 ft | 491 kts | 307° |
| 2026-05-07 04:33 | 51.67413 | -9.42650 | 33941 ft | 491 kts | 307° |
| 2026-05-07 04:34 | 51.71472 | -9.51566 | 33933 ft | 492 kts | 307° |
| 2026-05-07 04:34 | 51.75538 | -9.60487 | 33926 ft | 492 kts | 307° |
| 2026-05-07 04:35 | 51.79610 | -9.69404 | 33923 ft | 493 kts | 306° |
| 2026-05-07 04:35 | 51.83691 | -9.78326 | 33912 ft | 493 kts | 307° |
| 2026-05-07 04:36 | 51.87777 | -9.87244 | 33914 ft | 494 kts | 307° |
| 2026-05-07 04:36 | 51.91880 | -9.96186 | 33916 ft | 495 kts | 307° |
| 2026-05-07 04:37 | 51.95995 | -10.05138 | 33923 ft | 494 kts | 307° |
| 2026-05-07 04:37 | 52.00084 | -10.14016 | 33932 ft | 493 kts | 307° |
| 2026-05-07 04:38 | 52.04217 | -10.22981 | 33937 ft | 493 kts | 307° |
| 2026-05-07 04:38 | 52.08205 | -10.32084 | 33933 ft | 494 kts | 305° |
| 2026-05-07 04:39 | 52.12109 | -10.41155 | 33923 ft | 494 kts | 305° |
| 2026-05-07 04:39 | 52.16074 | -10.50293 | 33931 ft | 493 kts | 306° |
| 2026-05-07 04:40 | 52.20049 | -10.59407 | 33929 ft | 493 kts | 305° |
| 2026-05-07 04:40 | 52.24014 | -10.68485 | 33935 ft | 492 kts | 304° |
| 2026-05-07 04:41 | 52.27964 | -10.77519 | 33930 ft | 492 kts | 305° |
| 2026-05-07 04:41 | 52.31918 | -10.86540 | 33925 ft | 491 kts | 305° |
| 2026-05-07 04:42 | 52.35908 | -10.95626 | 33917 ft | 491 kts | 305° |
| 2026-05-07 04:42 | 52.39878 | -11.04655 | 33924 ft | 491 kts | 305° |
| 2026-05-07 04:43 | 52.43842 | -11.13655 | 33927 ft | 490 kts | 305° |
| 2026-05-07 04:43 | 52.47823 | -11.22680 | 33922 ft | 489 kts | 305° |
| 2026-05-07 04:44 | 52.51828 | -11.31737 | 33919 ft | 489 kts | 305° |
| 2026-05-07 04:44 | 52.55715 | -11.40864 | 33924 ft | 488 kts | 303° |
| 2026-05-07 04:45 | 52.59477 | -11.50024 | 33922 ft | 488 kts | 303° |
| 2026-05-07 04:45 | 52.63297 | -11.59233 | 33915 ft | 487 kts | 303° |
| 2026-05-07 04:46 | 52.67121 | -11.68407 | 33917 ft | 487 kts | 302° |
| 2026-05-07 04:46 | 52.70926 | -11.77522 | 33917 ft | 486 kts | 302° |
| 2026-05-07 04:47 | 52.74768 | -11.86700 | 33911 ft | 486 kts | 302° |
| 2026-05-07 04:47 | 52.78595 | -11.95826 | 33909 ft | 485 kts | 303° |
| 2026-05-07 04:48 | 52.82431 | -12.04958 | 33910 ft | 484 kts | 303° |
| 2026-05-07 04:48 | 52.86239 | -12.14007 | 33902 ft | 483 kts | 303° |
| 2026-05-07 04:49 | 52.90091 | -12.23151 | 33908 ft | 483 kts | 303° |
| 2026-05-07 04:49 | 52.93909 | -12.32187 | 33908 ft | 482 kts | 303° |
| 2026-05-07 04:50 | 52.97750 | -12.41271 | 33910 ft | 481 kts | 303° |
| 2026-05-07 04:50 | 53.01553 | -12.50345 | 33910 ft | 480 kts | 301° |
| 2026-05-07 04:51 | 53.05184 | -12.59604 | 33907 ft | 480 kts | 301° |
| 2026-05-07 04:51 | 53.08855 | -12.68901 | 33900 ft | 481 kts | 300° |
| 2026-05-07 04:52 | 53.12529 | -12.78143 | 33899 ft | 480 kts | 300° |
| 2026-05-07 04:52 | 53.16196 | -12.87332 | 33897 ft | 480 kts | 300° |
| 2026-05-07 04:53 | 53.19895 | -12.96588 | 33892 ft | 480 kts | 301° |
| 2026-05-07 04:53 | 53.23599 | -13.05831 | 33883 ft | 480 kts | 300° |
| 2026-05-07 04:54 | 53.27284 | -13.15023 | 33877 ft | 478 kts | 300° |
| 2026-05-07 04:54 | 53.30969 | -13.24195 | 33878 ft | 478 kts | 300° |
| 2026-05-07 04:55 | 53.34698 | -13.33458 | 33878 ft | 478 kts | 300° |
| 2026-05-07 04:55 | 53.38404 | -13.42637 | 33879 ft | 478 kts | 301° |
| 2026-05-07 04:56 | 53.42112 | -13.51803 | 33871 ft | 479 kts | 300° |
| 2026-05-07 04:56 | 53.45840 | -13.61017 | 33866 ft | 478 kts | 300° |
| 2026-05-07 04:57 | 53.49451 | -13.70374 | 33867 ft | 476 kts | 297° |
| 2026-05-07 04:57 | 53.52969 | -13.79761 | 33859 ft | 476 kts | 297° |
| 2026-05-07 04:58 | 53.56481 | -13.89055 | 33864 ft | 475 kts | 298° |
| 2026-05-07 04:58 | 53.60045 | -13.98425 | 33862 ft | 474 kts | 298° |
| 2026-05-07 04:59 | 53.63595 | -14.07743 | 33856 ft | 474 kts | 298° |
| 2026-05-07 04:59 | 53.67138 | -14.17021 | 33860 ft | 473 kts | 298° |
| 2026-05-07 05:00 | 53.70681 | -14.26289 | 33870 ft | 472 kts | 298° |
| 2026-05-07 05:00 | 53.74243 | -14.35577 | 33870 ft | 472 kts | 298° |
| 2026-05-07 05:01 | 53.77788 | -14.44808 | 33872 ft | 472 kts | 298° |
| 2026-05-07 05:01 | 53.81375 | -14.54128 | 33872 ft | 472 kts | 298° |
| 2026-05-07 05:02 | 53.84948 | -14.63395 | 33869 ft | 471 kts | 298° |
| 2026-05-07 05:02 | 53.88504 | -14.72597 | 33860 ft | 470 kts | 297° |
| 2026-05-07 05:03 | 53.92092 | -14.81883 | 33861 ft | 469 kts | 296° |
| 2026-05-07 05:03 | 53.95571 | -14.91191 | 33861 ft | 469 kts | 297° |
| 2026-05-07 05:04 | 53.98721 | -15.00728 | 33865 ft | 461 kts | 285° |
| 2026-05-07 05:04 | 54.00267 | -15.11091 | 33869 ft | 448 kts | 270° |
| 2026-05-07 05:05 | 54.00400 | -15.21529 | 33871 ft | 442 kts | 265° |
| 2026-05-07 05:05 | 54.00433 | -15.31915 | 33869 ft | 440 kts | 266° |
| 2026-05-07 05:06 | 54.00508 | -15.42313 | 33876 ft | 441 kts | 266° |
| 2026-05-07 05:06 | 54.00608 | -15.52683 | 33875 ft | 440 kts | 266° |
| 2026-05-07 05:07 | 54.00716 | -15.63032 | 33880 ft | 440 kts | 267° |
| 2026-05-07 05:07 | 54.00834 | -15.73408 | 33892 ft | 439 kts | 266° |
| 2026-05-07 05:08 | 54.00959 | -15.83751 | 33887 ft | 439 kts | 266° |
| 2026-05-07 05:08 | 54.01093 | -15.94063 | 33890 ft | 438 kts | 266° |
| 2026-05-07 05:09 | 54.01235 | -16.04356 | 33887 ft | 438 kts | 266° |
| 2026-05-07 05:09 | 54.01386 | -16.14684 | 33873 ft | 438 kts | 267° |
| 2026-05-07 05:10 | 54.01548 | -16.25009 | 33869 ft | 437 kts | 267° |
| 2026-05-07 05:10 | 54.01715 | -16.35292 | 33874 ft | 437 kts | 267° |
| 2026-05-07 05:11 | 54.01892 | -16.45580 | 33866 ft | 437 kts | 268° |
| 2026-05-07 05:11 | 54.02077 | -16.55806 | 33876 ft | 436 kts | 268° |
| 2026-05-07 05:12 | 54.02072 | -16.66071 | 33887 ft | 435 kts | 265° |
| 2026-05-07 05:12 | 54.02001 | -16.76369 | 33894 ft | 435 kts | 265° |
| 2026-05-07 05:13 | 54.01964 | -16.86630 | 33899 ft | 435 kts | 266° |
| 2026-05-07 05:13 | 54.01945 | -16.96876 | 33896 ft | 436 kts | 266° |
| 2026-05-07 05:14 | 54.01934 | -17.07091 | 33895 ft | 436 kts | 266° |
| 2026-05-07 05:14 | 54.01931 | -17.17394 | 33894 ft | 436 kts | 266° |
| 2026-05-07 05:15 | 54.01938 | -17.27654 | 33890 ft | 435 kts | 267° |
| 2026-05-07 05:15 | 54.01950 | -17.37853 | 33890 ft | 435 kts | 267° |
| 2026-05-07 05:16 | 54.01973 | -17.48110 | 33904 ft | 435 kts | 268° |
| 2026-05-07 05:16 | 54.02004 | -17.58436 | 33895 ft | 435 kts | 268° |
| 2026-05-07 05:17 | 54.02045 | -17.68668 | 33882 ft | 436 kts | 268° |
| 2026-05-07 05:17 | 54.02095 | -17.78969 | 33893 ft | 436 kts | 268° |
| 2026-05-07 05:18 | 54.02156 | -17.89272 | 33891 ft | 436 kts | 268° |
| 2026-05-07 05:18 | 54.02214 | -17.99543 | 33892 ft | 436 kts | 267° |
| 2026-05-07 05:19 | 54.02038 | -18.09825 | 33900 ft | 436 kts | 266° |
| 2026-05-07 05:19 | 54.01853 | -18.20069 | 33898 ft | 437 kts | 266° |
| 2026-05-07 05:20 | 54.01701 | -18.30404 | 33896 ft | 438 kts | 267° |
| 2026-05-07 05:20 | 54.01562 | -18.40706 | 33912 ft | 438 kts | 267° |
| 2026-05-07 05:21 | 54.01370 | -18.56206 | 33908 ft | 439 kts | 267° |
| 2026-05-07 05:22 | 54.01252 | -18.66565 | 33921 ft | 438 kts | 266° |
| 2026-05-07 05:22 | 54.01143 | -18.76892 | 33938 ft | 439 kts | 267° |
| 2026-05-07 05:23 | 54.01042 | -18.87221 | 33938 ft | 439 kts | 267° |
| 2026-05-07 05:23 | 54.00951 | -18.97566 | 33940 ft | 440 kts | 268° |
| 2026-05-07 05:24 | 54.00868 | -19.07962 | 33950 ft | 442 kts | 268° |
| 2026-05-07 05:24 | 54.00794 | -19.18344 | 33945 ft | 443 kts | 268° |
| 2026-05-07 05:25 | 54.00728 | -19.28778 | 33948 ft | 443 kts | 268° |
| 2026-05-07 05:25 | 54.00672 | -19.39231 | 33945 ft | 443 kts | 268° |
| 2026-05-07 05:26 | 54.00481 | -19.49700 | 33956 ft | 444 kts | 266° |
| 2026-05-07 05:26 | 54.00255 | -19.60090 | 33955 ft | 444 kts | 267° |
| 2026-05-07 05:27 | 54.00054 | -19.70601 | 33956 ft | 443 kts | 267° |
| 2026-05-07 05:27 | 53.99874 | -19.80966 | 33958 ft | 443 kts | 267° |
| 2026-05-07 05:28 | 53.99721 | -19.91417 | 33963 ft | 444 kts | 269° |
| 2026-05-07 05:28 | 53.99707 | -20.01939 | 33951 ft | 445 kts | 267° |
| 2026-05-07 05:29 | 53.99237 | -20.12333 | 33955 ft | 446 kts | 263° |
| 2026-05-07 05:29 | 53.98549 | -20.22778 | 33959 ft | 445 kts | 263° |
| 2026-05-07 05:30 | 53.97839 | -20.33216 | 33951 ft | 445 kts | 263° |
| 2026-05-07 05:30 | 53.97134 | -20.43594 | 33951 ft | 446 kts | 263° |
| 2026-05-07 05:31 | 53.96433 | -20.54020 | 33952 ft | 446 kts | 263° |
| 2026-05-07 05:31 | 53.95741 | -20.64459 | 33952 ft | 446 kts | 264° |
| 2026-05-07 05:32 | 53.95059 | -20.74866 | 33952 ft | 446 kts | 263° |
| 2026-05-07 05:32 | 53.94385 | -20.85300 | 33961 ft | 446 kts | 264° |
| 2026-05-07 05:33 | 53.93721 | -20.95751 | 33968 ft | 446 kts | 264° |
| 2026-05-07 05:33 | 53.93066 | -21.06170 | 33968 ft | 446 kts | 264° |
| 2026-05-07 05:34 | 53.92420 | -21.16605 | 33965 ft | 446 kts | 264° |
| 2026-05-07 05:34 | 53.91783 | -21.27018 | 33967 ft | 447 kts | 264° |
| 2026-05-07 05:35 | 53.91152 | -21.37490 | 33964 ft | 447 kts | 265° |
| 2026-05-07 05:35 | 53.90533 | -21.47920 | 33972 ft | 447 kts | 265° |
| 2026-05-07 05:36 | 53.89840 | -21.58399 | 33981 ft | 447 kts | 263° |
| 2026-05-07 05:36 | 53.88952 | -21.68775 | 33986 ft | 448 kts | 262° |
| 2026-05-07 05:37 | 53.88094 | -21.79221 | 33988 ft | 448 kts | 263° |
| 2026-05-07 05:37 | 53.87265 | -21.89654 | 33994 ft | 448 kts | 263° |
| 2026-05-07 05:38 | 53.86443 | -22.00104 | 34002 ft | 449 kts | 263° |
| 2026-05-07 05:38 | 53.85630 | -22.10567 | 34002 ft | 450 kts | 263° |
| 2026-05-07 05:39 | 53.84826 | -22.21031 | 33996 ft | 450 kts | 263° |
| 2026-05-07 05:39 | 53.84029 | -22.31516 | 34000 ft | 450 kts | 264° |
| 2026-05-07 05:40 | 53.83245 | -22.41933 | 34003 ft | 449 kts | 264° |
| 2026-05-07 05:40 | 53.82469 | -22.52373 | 34004 ft | 449 kts | 264° |
| 2026-05-07 05:41 | 53.81699 | -22.62851 | 34001 ft | 449 kts | 264° |
| 2026-05-07 05:41 | 53.80940 | -22.73306 | 34000 ft | 450 kts | 264° |
| 2026-05-07 05:42 | 53.80188 | -22.83789 | 33999 ft | 449 kts | 264° |
| 2026-05-07 05:42 | 53.79442 | -22.94248 | 34003 ft | 449 kts | 263° |
| 2026-05-07 05:43 | 53.78460 | -23.04629 | 33994 ft | 450 kts | 262° |
| 2026-05-07 05:43 | 53.77468 | -23.15014 | 34006 ft | 449 kts | 262° |
| 2026-05-07 05:44 | 53.76504 | -23.25448 | 34004 ft | 450 kts | 263° |
| 2026-05-07 05:44 | 53.75557 | -23.35870 | 34006 ft | 451 kts | 263° |
| 2026-05-07 05:45 | 53.74617 | -23.46292 | 34002 ft | 451 kts | 263° |
| 2026-05-07 05:45 | 53.73690 | -23.56676 | 34011 ft | 451 kts | 264° |
| 2026-05-07 05:46 | 53.72761 | -23.67196 | 34002 ft | 451 kts | 263° |
| 2026-05-07 05:46 | 53.71852 | -23.77572 | 34003 ft | 451 kts | 263° |
| 2026-05-07 05:47 | 53.70947 | -23.88025 | 34017 ft | 451 kts | 263° |
| 2026-05-07 05:47 | 53.70045 | -23.98527 | 34016 ft | 452 kts | 264° |
| 2026-05-07 05:48 | 53.69159 | -24.08936 | 34018 ft | 452 kts | 264° |
| 2026-05-07 05:48 | 53.68278 | -24.19432 | 34021 ft | 453 kts | 264° |
| 2026-05-07 05:49 | 53.67405 | -24.29921 | 34018 ft | 453 kts | 264° |
| 2026-05-07 05:49 | 53.66382 | -24.40347 | 34023 ft | 454 kts | 262° |
| 2026-05-07 05:50 | 53.65241 | -24.50821 | 34023 ft | 454 kts | 263° |
| 2026-05-07 05:50 | 53.64143 | -24.61245 | 34021 ft | 454 kts | 263° |
| 2026-05-07 05:51 | 53.63063 | -24.71688 | 34027 ft | 454 kts | 263° |
| 2026-05-07 05:51 | 53.61995 | -24.82140 | 34034 ft | 454 kts | 263° |
| 2026-05-07 05:52 | 53.60935 | -24.92561 | 34034 ft | 455 kts | 263° |
| 2026-05-07 05:52 | 53.59880 | -25.03016 | 34036 ft | 455 kts | 263° |
| 2026-05-07 05:53 | 53.58830 | -25.13521 | 34040 ft | 455 kts | 264° |
| 2026-05-07 05:53 | 53.57797 | -25.23959 | 34042 ft | 455 kts | 264° |
| 2026-05-07 05:54 | 53.56770 | -25.34405 | 34043 ft | 455 kts | 264° |
| 2026-05-07 05:54 | 53.55747 | -25.44929 | 34043 ft | 456 kts | 265° |
| 2026-05-07 05:55 | 53.54733 | -25.55445 | 34040 ft | 457 kts | 265° |
| 2026-05-07 05:55 | 53.53726 | -25.65967 | 34046 ft | 456 kts | 265° |
| 2026-05-07 05:56 | 53.52634 | -25.76407 | 34049 ft | 458 kts | 263° |
| 2026-05-07 05:56 | 53.51360 | -25.86880 | 34051 ft | 458 kts | 263° |
| 2026-05-07 05:57 | 53.50126 | -25.97317 | 34053 ft | 458 kts | 264° |
| 2026-05-07 05:57 | 53.48917 | -26.07775 | 34048 ft | 459 kts | 264° |
| 2026-05-07 05:58 | 53.47709 | -26.18299 | 34059 ft | 458 kts | 264° |
| 2026-05-07 05:58 | 53.46519 | -26.28729 | 34056 ft | 459 kts | 264° |
| 2026-05-07 05:59 | 53.45328 | -26.39243 | 34050 ft | 459 kts | 265° |
| 2026-05-07 05:59 | 53.44151 | -26.49730 | 34057 ft | 459 kts | 265° |
| 2026-05-07 06:00 | 53.42979 | -26.60238 | 34061 ft | 460 kts | 266° |
| 2026-05-07 06:00 | 53.41818 | -26.70757 | 34070 ft | 459 kts | 265° |
| 2026-05-07 06:01 | 53.40671 | -26.81210 | 34063 ft | 460 kts | 265° |
| 2026-05-07 06:01 | 53.39528 | -26.91723 | 34071 ft | 461 kts | 266° |
| 2026-05-07 06:02 | 53.38392 | -27.02254 | 34069 ft | 461 kts | 266° |
| 2026-05-07 06:02 | 53.37181 | -27.12811 | 34081 ft | 462 kts | 264° |
| 2026-05-07 06:03 | 53.35777 | -27.23257 | 34096 ft | 461 kts | 265° |
| 2026-05-07 06:03 | 53.34418 | -27.33683 | 34091 ft | 461 kts | 265° |
| 2026-05-07 06:04 | 53.33080 | -27.44115 | 34094 ft | 460 kts | 266° |
| 2026-05-07 06:04 | 53.31752 | -27.54549 | 34095 ft | 459 kts | 266° |
| 2026-05-07 06:05 | 53.30434 | -27.64980 | 34102 ft | 460 kts | 266° |
| 2026-05-07 06:05 | 53.29127 | -27.75386 | 34094 ft | 459 kts | 266° |
| 2026-05-07 06:06 | 53.27834 | -27.85764 | 34096 ft | 458 kts | 266° |
| 2026-05-07 06:06 | 53.26541 | -27.96177 | 34108 ft | 458 kts | 267° |
| 2026-05-07 06:07 | 53.25269 | -28.06559 | 34108 ft | 459 kts | 267° |
| 2026-05-07 06:07 | 53.23995 | -28.16982 | 34105 ft | 459 kts | 268° |
| 2026-05-07 06:08 | 53.22737 | -28.27376 | 34105 ft | 457 kts | 268° |
| 2026-05-07 06:08 | 53.21491 | -28.37716 | 34121 ft | 458 kts | 268° |
| 2026-05-07 06:09 | 53.20193 | -28.48116 | 34123 ft | 462 kts | 266° |
| 2026-05-07 06:09 | 53.18673 | -28.58470 | 34125 ft | 463 kts | 266° |
| 2026-05-07 06:10 | 53.17181 | -28.68883 | 34116 ft | 464 kts | 266° |
| 2026-05-07 06:10 | 53.15712 | -28.79330 | 34103 ft | 463 kts | 266° |
| 2026-05-07 06:11 | 53.14262 | -28.89716 | 34121 ft | 463 kts | 267° |
| 2026-05-07 06:11 | 53.12810 | -29.00164 | 34113 ft | 464 kts | 267° |
| 2026-05-07 06:12 | 53.11371 | -29.10582 | 34121 ft | 462 kts | 267° |
| 2026-05-07 06:12 | 53.09943 | -29.21014 | 34119 ft | 463 kts | 267° |
| 2026-05-07 06:13 | 53.08524 | -29.31435 | 34113 ft | 465 kts | 268° |
| 2026-05-07 06:13 | 53.07113 | -29.41843 | 34108 ft | 463 kts | 268° |
| 2026-05-07 06:14 | 53.05711 | -29.52260 | 34113 ft | 463 kts | 268° |
| 2026-05-07 06:14 | 53.04321 | -29.62687 | 34114 ft | 465 kts | 268° |
| 2026-05-07 06:15 | 53.02934 | -29.73115 | 34117 ft | 466 kts | 267° |
| 2026-05-07 06:15 | 53.01506 | -29.83655 | 34114 ft | 469 kts | 266° |
| 2026-05-07 06:16 | 53.00042 | -29.94123 | 34108 ft | 463 kts | 271° |
| 2026-05-07 06:16 | 52.99371 | -30.04605 | 34109 ft | 461 kts | 272° |
| 2026-05-07 06:17 | 52.98325 | -30.15144 | 34095 ft | 465 kts | 269° |
| 2026-05-07 06:17 | 52.97140 | -30.25665 | 34108 ft | 466 kts | 269° |
| 2026-05-07 06:18 | 52.95934 | -30.36210 | 34107 ft | 466 kts | 269° |
| 2026-05-07 06:18 | 52.94744 | -30.46690 | 34105 ft | 465 kts | 269° |
| 2026-05-07 06:19 | 52.93556 | -30.57235 | 34109 ft | 465 kts | 269° |
| 2026-05-07 06:19 | 52.92379 | -30.67742 | 34114 ft | 467 kts | 269° |
| 2026-05-07 06:20 | 52.91206 | -30.78319 | 34126 ft | 467 kts | 269° |
| 2026-05-07 06:20 | 52.90049 | -30.88798 | 34124 ft | 466 kts | 269° |
| 2026-05-07 06:21 | 52.88898 | -30.99327 | 34122 ft | 464 kts | 269° |
| 2026-05-07 06:21 | 52.87764 | -31.09805 | 34128 ft | 464 kts | 269° |
| 2026-05-07 06:22 | 52.86633 | -31.20322 | 34126 ft | 464 kts | 269° |
| 2026-05-07 06:22 | 52.84954 | -31.36076 | 34125 ft | 466 kts | 269° |
| 2026-05-07 06:23 | 52.83847 | -31.46598 | 34126 ft | 467 kts | 269° |
| 2026-05-07 06:23 | 52.82525 | -31.57061 | 34124 ft | 469 kts | 267° |
| 2026-05-07 06:24 | 52.81149 | -31.67621 | 34127 ft | 470 kts | 266° |
| 2026-05-07 06:24 | 52.79811 | -31.78159 | 34127 ft | 471 kts | 267° |
| 2026-05-07 06:25 | 52.78492 | -31.88697 | 34132 ft | 470 kts | 267° |
| 2026-05-07 06:25 | 52.77184 | -31.99217 | 34127 ft | 469 kts | 267° |
| 2026-05-07 06:26 | 52.75881 | -32.09771 | 34125 ft | 469 kts | 267° |
| 2026-05-07 06:26 | 52.74588 | -32.20305 | 34136 ft | 468 kts | 267° |
| 2026-05-07 06:27 | 52.73313 | -32.30766 | 34132 ft | 468 kts | 268° |
| 2026-05-07 06:27 | 52.72044 | -32.41274 | 34135 ft | 467 kts | 268° |
| 2026-05-07 06:28 | 52.70794 | -32.51690 | 34126 ft | 467 kts | 268° |
| 2026-05-07 06:28 | 52.69542 | -32.62190 | 34129 ft | 468 kts | 268° |
| 2026-05-07 06:29 | 52.68306 | -32.72643 | 34133 ft | 466 kts | 267° |
| 2026-05-07 06:29 | 52.67065 | -32.83089 | 34124 ft | 468 kts | 266° |
| 2026-05-07 06:30 | 52.65576 | -32.93564 | 34116 ft | 470 kts | 265° |
| 2026-05-07 06:30 | 52.64090 | -33.04038 | 34128 ft | 470 kts | 265° |
| 2026-05-07 06:31 | 52.62651 | -33.14408 | 34129 ft | 468 kts | 265° |
| 2026-05-07 06:31 | 52.61223 | -33.24811 | 34137 ft | 467 kts | 265° |
| 2026-05-07 06:32 | 52.59802 | -33.35215 | 34144 ft | 467 kts | 266° |
| 2026-05-07 06:32 | 52.58396 | -33.45573 | 34145 ft | 466 kts | 266° |
| 2026-05-07 06:33 | 52.56994 | -33.55985 | 34159 ft | 466 kts | 266° |
| 2026-05-07 06:33 | 52.55608 | -33.66319 | 34160 ft | 467 kts | 265° |
| 2026-05-07 06:34 | 52.54224 | -33.76716 | 34168 ft | 468 kts | 265° |
| 2026-05-07 06:34 | 52.52850 | -33.87118 | 34160 ft | 468 kts | 266° |
| 2026-05-07 06:35 | 52.51480 | -33.97547 | 34162 ft | 467 kts | 266° |
| 2026-05-07 06:35 | 52.50122 | -34.07942 | 34169 ft | 467 kts | 266° |
| 2026-05-07 06:36 | 52.48747 | -34.18254 | 34181 ft | 469 kts | 264° |
| 2026-05-07 06:36 | 52.47121 | -34.28663 | 34185 ft | 469 kts | 264° |
| 2026-05-07 06:37 | 52.45532 | -34.39003 | 34173 ft | 468 kts | 264° |
| 2026-05-07 06:37 | 52.43978 | -34.49309 | 34175 ft | 468 kts | 265° |
| 2026-05-07 06:38 | 52.42430 | -34.59655 | 34177 ft | 468 kts | 265° |
| 2026-05-07 06:38 | 52.40899 | -34.69937 | 34181 ft | 467 kts | 264° |
| 2026-05-07 06:39 | 52.39377 | -34.80221 | 34178 ft | 468 kts | 264° |
| 2026-05-07 06:39 | 52.37848 | -34.90622 | 34183 ft | 468 kts | 264° |
| 2026-05-07 06:40 | 52.36338 | -35.00934 | 34185 ft | 468 kts | 264° |
| 2026-05-07 06:40 | 52.34843 | -35.11221 | 34184 ft | 468 kts | 265° |
| 2026-05-07 06:41 | 52.33347 | -35.21565 | 34189 ft | 468 kts | 265° |
| 2026-05-07 06:41 | 52.31866 | -35.31879 | 34196 ft | 467 kts | 265° |
| 2026-05-07 06:42 | 52.30403 | -35.42125 | 34183 ft | 466 kts | 265° |
| 2026-05-07 06:42 | 52.28859 | -35.52431 | 34190 ft | 469 kts | 263° |
| 2026-05-07 06:43 | 52.27133 | -35.62643 | 34200 ft | 469 kts | 263° |
| 2026-05-07 06:43 | 52.25436 | -35.72886 | 34205 ft | 468 kts | 263° |
| 2026-05-07 06:44 | 52.23764 | -35.83150 | 34198 ft | 468 kts | 263° |
| 2026-05-07 06:44 | 52.22111 | -35.93349 | 34199 ft | 467 kts | 263° |
| 2026-05-07 06:45 | 52.20466 | -36.03544 | 34206 ft | 467 kts | 263° |
| 2026-05-07 06:45 | 52.18827 | -36.13766 | 34200 ft | 467 kts | 263° |
| 2026-05-07 06:46 | 52.17205 | -36.23925 | 34202 ft | 467 kts | 264° |
| 2026-05-07 06:46 | 52.15586 | -36.34132 | 34199 ft | 468 kts | 264° |
| 2026-05-07 06:47 | 52.13970 | -36.44367 | 34199 ft | 468 kts | 264° |
| 2026-05-07 06:47 | 52.12368 | -36.54570 | 34199 ft | 467 kts | 264° |
| 2026-05-07 06:48 | 52.10772 | -36.64787 | 34194 ft | 465 kts | 264° |
| 2026-05-07 06:48 | 52.09196 | -36.74949 | 34191 ft | 466 kts | 264° |
| 2026-05-07 06:49 | 52.07507 | -36.85126 | 34193 ft | 470 kts | 261° |
| 2026-05-07 06:49 | 52.05669 | -36.95229 | 34203 ft | 470 kts | 262° |
| 2026-05-07 06:50 | 52.03867 | -37.05379 | 34201 ft | 469 kts | 262° |
| 2026-05-07 06:50 | 52.02085 | -37.15546 | 34204 ft | 470 kts | 262° |
| 2026-05-07 06:51 | 52.00303 | -37.25747 | 34202 ft | 469 kts | 262° |
| 2026-05-07 06:51 | 51.98547 | -37.35852 | 34208 ft | 468 kts | 262° |
| 2026-05-07 06:52 | 51.96789 | -37.46009 | 34214 ft | 468 kts | 263° |
| 2026-05-07 06:52 | 51.95051 | -37.56111 | 34214 ft | 469 kts | 263° |
| 2026-05-07 06:53 | 51.93316 | -37.66254 | 34235 ft | 468 kts | 262° |
| 2026-05-07 06:53 | 51.91589 | -37.76376 | 34229 ft | 468 kts | 262° |
| 2026-05-07 06:54 | 51.89867 | -37.86544 | 34228 ft | 469 kts | 262° |
| 2026-05-07 06:54 | 51.88154 | -37.96680 | 34230 ft | 469 kts | 262° |
| 2026-05-07 06:55 | 51.86453 | -38.06815 | 34223 ft | 468 kts | 262° |
| 2026-05-07 06:55 | 51.84607 | -38.16865 | 34226 ft | 470 kts | 259° |
| 2026-05-07 06:56 | 51.82649 | -38.26961 | 34234 ft | 470 kts | 260° |
| 2026-05-07 06:56 | 51.80746 | -38.36978 | 34229 ft | 469 kts | 261° |
| 2026-05-07 06:57 | 51.78849 | -38.47068 | 34219 ft | 469 kts | 261° |
| 2026-05-07 06:57 | 51.76974 | -38.57093 | 34221 ft | 469 kts | 261° |
| 2026-05-07 06:58 | 51.75098 | -38.67152 | 34224 ft | 470 kts | 260° |
| 2026-05-07 06:58 | 51.73228 | -38.77224 | 34228 ft | 471 kts | 260° |
| 2026-05-07 06:59 | 51.71370 | -38.87276 | 34229 ft | 470 kts | 260° |
| 2026-05-07 06:59 | 51.69515 | -38.97364 | 34233 ft | 470 kts | 261° |
| 2026-05-07 07:00 | 51.67671 | -39.07433 | 34224 ft | 470 kts | 261° |
| 2026-05-07 07:00 | 51.65846 | -39.17445 | 34227 ft | 469 kts | 261° |
| 2026-05-07 07:01 | 51.64018 | -39.27537 | 34225 ft | 469 kts | 261° |
| 2026-05-07 07:01 | 51.62202 | -39.37592 | 34231 ft | 469 kts | 260° |
| 2026-05-07 07:02 | 51.60236 | -39.47560 | 34244 ft | 471 kts | 259° |
| 2026-05-07 07:02 | 51.59244 | -39.52511 | 34925 ft | 461 kts | 259° |
| 2026-05-07 07:02 | 51.58272 | -39.57420 | 35198 ft | 462 kts | 259° |
| 2026-05-07 07:03 | 51.56343 | -39.67294 | 35226 ft | 468 kts | 259° |
| 2026-05-07 07:03 | 51.54400 | -39.77259 | 35216 ft | 470 kts | 259° |
| 2026-05-07 07:04 | 51.52451 | -39.87291 | 35226 ft | 468 kts | 259° |
| 2026-05-07 07:04 | 51.50530 | -39.97228 | 35223 ft | 468 kts | 259° |
| 2026-05-07 07:05 | 51.48874 | -40.07220 | 35237 ft | 462 kts | 266° |
| 2026-05-07 07:05 | 51.47817 | -40.17349 | 35231 ft | 463 kts | 266° |
| 2026-05-07 07:06 | 51.46698 | -40.27484 | 35235 ft | 462 kts | 266° |
| 2026-05-07 07:06 | 51.45557 | -40.37585 | 35221 ft | 461 kts | 266° |
| 2026-05-07 07:07 | 51.44430 | -40.47590 | 35223 ft | 461 kts | 266° |
| 2026-05-07 07:07 | 51.43300 | -40.57683 | 35215 ft | 461 kts | 266° |
| 2026-05-07 07:08 | 51.42175 | -40.67795 | 35212 ft | 462 kts | 266° |
| 2026-05-07 07:08 | 51.41060 | -40.77897 | 35214 ft | 462 kts | 266° |
| 2026-05-07 07:09 | 51.39951 | -40.88012 | 35215 ft | 462 kts | 266° |
| 2026-05-07 07:09 | 51.38854 | -40.98101 | 35215 ft | 461 kts | 266° |
| 2026-05-07 07:10 | 51.37777 | -41.08098 | 35219 ft | 460 kts | 266° |
| 2026-05-07 07:10 | 51.36696 | -41.18220 | 35216 ft | 460 kts | 266° |
| 2026-05-07 07:11 | 51.35630 | -41.28248 | 35214 ft | 460 kts | 266° |
| 2026-05-07 07:11 | 51.34573 | -41.38277 | 35217 ft | 461 kts | 265° |
| 2026-05-07 07:12 | 51.33282 | -41.48373 | 35211 ft | 464 kts | 264° |
| 2026-05-07 07:12 | 51.31980 | -41.58437 | 35206 ft | 464 kts | 264° |
| 2026-05-07 07:13 | 51.30706 | -41.68538 | 35208 ft | 465 kts | 264° |
| 2026-05-07 07:13 | 51.29444 | -41.78649 | 35208 ft | 465 kts | 264° |
| 2026-05-07 07:14 | 51.28197 | -41.88717 | 35214 ft | 466 kts | 264° |
| 2026-05-07 07:14 | 51.26949 | -41.98862 | 35216 ft | 465 kts | 264° |
| 2026-05-07 07:15 | 51.25717 | -42.08911 | 35210 ft | 464 kts | 264° |
| 2026-05-07 07:15 | 51.24494 | -42.18986 | 35204 ft | 463 kts | 264° |
| 2026-05-07 07:16 | 51.23282 | -42.29024 | 35209 ft | 463 kts | 264° |
| 2026-05-07 07:16 | 51.22076 | -42.39113 | 35200 ft | 463 kts | 264° |
| 2026-05-07 07:17 | 51.20880 | -42.49168 | 35207 ft | 462 kts | 264° |
| 2026-05-07 07:17 | 51.19702 | -42.59170 | 35205 ft | 461 kts | 264° |
| 2026-05-07 07:18 | 51.18516 | -42.69213 | 35191 ft | 461 kts | 262° |
| 2026-05-07 07:18 | 51.17125 | -42.79107 | 35193 ft | 462 kts | 261° |
| 2026-05-07 07:19 | 51.15722 | -42.89042 | 35198 ft | 460 kts | 262° |
| 2026-05-07 07:19 | 51.14349 | -42.98980 | 35196 ft | 459 kts | 262° |
| 2026-05-07 07:20 | 51.12996 | -43.08882 | 35188 ft | 460 kts | 262° |
| 2026-05-07 07:20 | 51.11647 | -43.18790 | 35195 ft | 459 kts | 262° |
| 2026-05-07 07:21 | 51.10313 | -43.28670 | 35196 ft | 460 kts | 262° |
| 2026-05-07 07:21 | 51.08980 | -43.38586 | 35196 ft | 460 kts | 262° |
| 2026-05-07 07:22 | 51.07653 | -43.48531 | 35195 ft | 461 kts | 262° |
| 2026-05-07 07:22 | 51.06334 | -43.58467 | 35190 ft | 460 kts | 263° |
| 2026-05-07 07:23 | 51.05032 | -43.68351 | 35193 ft | 460 kts | 262° |
| 2026-05-07 07:23 | 51.03731 | -43.78279 | 35198 ft | 460 kts | 262° |
| 2026-05-07 07:24 | 51.02446 | -43.88164 | 35187 ft | 459 kts | 262° |
| 2026-05-07 07:24 | 51.01160 | -43.98090 | 35192 ft | 459 kts | 261° |
| 2026-05-07 07:25 | 50.98910 | -44.12839 | 35189 ft | 462 kts | 260° |
| 2026-05-07 07:26 | 50.97411 | -44.22727 | 35186 ft | 461 kts | 260° |
| 2026-05-07 07:26 | 50.95938 | -44.32587 | 35194 ft | 461 kts | 260° |
| 2026-05-07 07:27 | 50.94469 | -44.42472 | 35196 ft | 461 kts | 261° |
| 2026-05-07 07:27 | 50.93019 | -44.52281 | 35194 ft | 461 kts | 261° |
| 2026-05-07 07:28 | 50.91573 | -44.62134 | 35191 ft | 460 kts | 261° |
| 2026-05-07 07:28 | 50.90125 | -44.72026 | 35193 ft | 461 kts | 261° |
| 2026-05-07 07:29 | 50.88697 | -44.81862 | 35196 ft | 462 kts | 261° |
| 2026-05-07 07:29 | 50.87269 | -44.91769 | 35200 ft | 462 kts | 261° |
| 2026-05-07 07:30 | 50.85855 | -45.01622 | 35187 ft | 462 kts | 261° |
| 2026-05-07 07:30 | 50.84442 | -45.11518 | 35171 ft | 463 kts | 261° |
| 2026-05-07 07:31 | 50.83035 | -45.21428 | 35190 ft | 463 kts | 261° |
| 2026-05-07 07:31 | 50.81555 | -45.31316 | 35202 ft | 465 kts | 259° |
| 2026-05-07 07:32 | 50.79908 | -45.41147 | 35192 ft | 464 kts | 259° |
| 2026-05-07 07:32 | 50.78292 | -45.51003 | 35182 ft | 463 kts | 259° |
| 2026-05-07 07:33 | 50.76708 | -45.60809 | 35193 ft | 464 kts | 259° |
| 2026-05-07 07:33 | 50.75124 | -45.70662 | 35188 ft | 464 kts | 259° |
| 2026-05-07 07:34 | 50.73547 | -45.80518 | 35187 ft | 464 kts | 259° |
| 2026-05-07 07:34 | 50.71981 | -45.90377 | 35180 ft | 463 kts | 259° |
| 2026-05-07 07:35 | 50.70427 | -46.00193 | 35190 ft | 462 kts | 259° |
| 2026-05-07 07:35 | 50.68879 | -46.10007 | 35185 ft | 463 kts | 259° |
| 2026-05-07 07:36 | 50.67342 | -46.19831 | 35184 ft | 464 kts | 259° |
| 2026-05-07 07:36 | 50.65812 | -46.29661 | 35228 ft | 464 kts | 259° |
| 2026-05-07 07:37 | 50.64295 | -46.39445 | 35182 ft | 463 kts | 260° |
| 2026-05-07 07:37 | 50.62780 | -46.49281 | 35189 ft | 462 kts | 260° |
| 2026-05-07 07:38 | 50.61183 | -46.59077 | 35198 ft | 463 kts | 258° |
| 2026-05-07 07:38 | 50.59434 | -46.68807 | 35189 ft | 463 kts | 257° |
| 2026-05-07 07:39 | 50.57727 | -46.78489 | 35188 ft | 462 kts | 258° |
| 2026-05-07 07:39 | 50.56035 | -46.88236 | 35188 ft | 462 kts | 258° |
| 2026-05-07 07:40 | 50.54357 | -46.97922 | 35203 ft | 462 kts | 258° |
| 2026-05-07 07:40 | 50.52680 | -47.07672 | 35192 ft | 462 kts | 258° |
| 2026-05-07 07:41 | 50.51015 | -47.17369 | 35188 ft | 461 kts | 258° |
| 2026-05-07 07:41 | 50.49364 | -47.27050 | 35185 ft | 461 kts | 258° |
| 2026-05-07 07:42 | 50.47715 | -47.36765 | 35195 ft | 460 kts | 258° |
| 2026-05-07 07:42 | 50.46077 | -47.46467 | 35197 ft | 461 kts | 258° |
| 2026-05-07 07:43 | 50.44459 | -47.56090 | 35193 ft | 461 kts | 258° |
| 2026-05-07 07:43 | 50.42833 | -47.65799 | 35197 ft | 461 kts | 258° |
| 2026-05-07 07:44 | 50.41219 | -47.75502 | 35193 ft | 461 kts | 258° |
| 2026-05-07 07:44 | 50.39528 | -47.85175 | 35203 ft | 461 kts | 256° |
| 2026-05-07 07:45 | 50.37681 | -47.94774 | 35199 ft | 460 kts | 256° |
| 2026-05-07 07:45 | 50.35883 | -48.04309 | 35191 ft | 460 kts | 256° |
| 2026-05-07 07:46 | 50.34101 | -48.13868 | 35198 ft | 460 kts | 257° |
| 2026-05-07 07:46 | 50.32319 | -48.23481 | 35196 ft | 460 kts | 257° |
| 2026-05-07 07:47 | 50.30551 | -48.33049 | 35190 ft | 460 kts | 257° |
| 2026-05-07 07:47 | 50.28786 | -48.42648 | 35179 ft | 460 kts | 257° |
| 2026-05-07 07:48 | 50.27034 | -48.52220 | 35187 ft | 459 kts | 257° |
| 2026-05-07 07:48 | 50.25289 | -48.61790 | 35188 ft | 458 kts | 257° |
| 2026-05-07 07:49 | 50.23556 | -48.71333 | 35181 ft | 458 kts | 256° |
| 2026-05-07 07:49 | 50.21838 | -48.80849 | 35188 ft | 458 kts | 256° |
| 2026-05-07 07:50 | 50.20125 | -48.90374 | 35185 ft | 457 kts | 257° |
| 2026-05-07 07:50 | 50.18421 | -48.99898 | 35180 ft | 457 kts | 257° |
| 2026-05-07 07:51 | 50.16659 | -49.09454 | 35185 ft | 457 kts | 255° |
| 2026-05-07 07:51 | 50.14767 | -49.18879 | 35183 ft | 457 kts | 255° |
| 2026-05-07 07:52 | 50.12914 | -49.28264 | 35191 ft | 456 kts | 255° |
| 2026-05-07 07:52 | 50.11067 | -49.37728 | 35179 ft | 455 kts | 256° |
| 2026-05-07 07:53 | 50.09244 | -49.47104 | 35173 ft | 455 kts | 256° |
| 2026-05-07 07:53 | 50.07430 | -49.56474 | 35178 ft | 454 kts | 256° |
| 2026-05-07 07:54 | 50.05621 | -49.65853 | 35176 ft | 453 kts | 255° |
| 2026-05-07 07:54 | 50.03822 | -49.75208 | 35179 ft | 452 kts | 255° |
| 2026-05-07 07:55 | 50.02041 | -49.84519 | 35181 ft | 452 kts | 255° |
| 2026-05-07 07:55 | 50.00374 | -49.93951 | 35169 ft | 450 kts | 260° |
| 2026-05-07 07:56 | 49.99006 | -50.03385 | 35185 ft | 453 kts | 255° |
| 2026-05-07 07:56 | 49.96908 | -50.12600 | 35165 ft | 455 kts | 251° |
| 2026-05-07 07:57 | 49.94635 | -50.21729 | 35170 ft | 453 kts | 250° |
| 2026-05-07 07:57 | 49.92358 | -50.30801 | 35170 ft | 452 kts | 250° |
| 2026-05-07 07:58 | 49.90084 | -50.39861 | 35171 ft | 452 kts | 250° |
| 2026-05-07 07:58 | 49.87818 | -50.48917 | 35167 ft | 451 kts | 250° |
| 2026-05-07 07:59 | 49.85569 | -50.57935 | 35161 ft | 450 kts | 251° |
| 2026-05-07 07:59 | 49.83328 | -50.66944 | 35160 ft | 450 kts | 250° |
| 2026-05-07 08:00 | 49.81091 | -50.75973 | 35175 ft | 450 kts | 250° |
| 2026-05-07 08:00 | 49.78861 | -50.84994 | 35185 ft | 451 kts | 250° |
| 2026-05-07 08:01 | 49.76632 | -50.94044 | 35159 ft | 451 kts | 250° |
| 2026-05-07 08:01 | 49.74427 | -51.03025 | 35156 ft | 451 kts | 250° |
| 2026-05-07 08:02 | 49.72217 | -51.12051 | 35171 ft | 450 kts | 250° |
| 2026-05-07 08:02 | 49.70006 | -51.21109 | 35171 ft | 449 kts | 250° |
| 2026-05-07 08:03 | 49.67825 | -51.30073 | 35173 ft | 450 kts | 250° |
| 2026-05-07 08:03 | 49.65524 | -51.39049 | 35170 ft | 450 kts | 249° |
| 2026-05-07 08:04 | 49.63191 | -51.47951 | 35157 ft | 448 kts | 249° |
| 2026-05-07 08:04 | 49.60878 | -51.56874 | 35158 ft | 448 kts | 249° |
| 2026-05-07 08:05 | 49.58590 | -51.65754 | 35163 ft | 448 kts | 249° |
| 2026-05-07 08:05 | 49.56314 | -51.74603 | 35157 ft | 448 kts | 249° |
| 2026-05-07 08:06 | 49.54024 | -51.83534 | 35163 ft | 448 kts | 249° |
| 2026-05-07 08:06 | 49.51783 | -51.92430 | 35154 ft | 447 kts | 251° |
| 2026-05-07 08:07 | 49.50262 | -52.01717 | 35171 ft | 449 kts | 260° |
| 2026-05-07 08:07 | 49.49737 | -52.11199 | 35154 ft | 449 kts | 266° |
| 2026-05-07 08:08 | 49.49429 | -52.20772 | 35157 ft | 448 kts | 266° |
| 2026-05-07 08:08 | 49.49128 | -52.30270 | 35156 ft | 448 kts | 266° |
| 2026-05-07 08:09 | 49.48826 | -52.39836 | 35161 ft | 447 kts | 266° |
| 2026-05-07 08:09 | 49.48534 | -52.49364 | 35159 ft | 446 kts | 266° |
| 2026-05-07 08:10 | 49.48249 | -52.58816 | 35153 ft | 447 kts | 266° |
| 2026-05-07 08:10 | 49.47974 | -52.68224 | 35131 ft | 446 kts | 265° |
| 2026-05-07 08:11 | 49.47703 | -52.77728 | 35128 ft | 445 kts | 265° |
| 2026-05-07 08:11 | 49.47442 | -52.87254 | 35138 ft | 445 kts | 266° |
| 2026-05-07 08:12 | 49.47189 | -52.96708 | 35141 ft | 445 kts | 266° |
| 2026-05-07 08:12 | 49.46944 | -53.06156 | 35119 ft | 444 kts | 266° |
| 2026-05-07 08:13 | 49.46704 | -53.15659 | 35127 ft | 444 kts | 266° |
| 2026-05-07 08:13 | 49.46474 | -53.25129 | 35131 ft | 443 kts | 266° |
| 2026-05-07 08:14 | 49.46257 | -53.34421 | 35124 ft | 442 kts | 266° |
| 2026-05-07 08:14 | 49.45982 | -53.43796 | 35130 ft | 441 kts | 264° |
| 2026-05-07 08:15 | 49.45531 | -53.53223 | 35120 ft | 440 kts | 264° |
| 2026-05-07 08:15 | 49.45114 | -53.62561 | 35110 ft | 437 kts | 264° |
| 2026-05-07 08:16 | 49.44720 | -53.71757 | 35120 ft | 436 kts | 264° |
| 2026-05-07 08:16 | 49.44336 | -53.81069 | 35123 ft | 436 kts | 263° |
| 2026-05-07 08:17 | 49.43959 | -53.90377 | 35121 ft | 435 kts | 264° |
| 2026-05-07 08:17 | 49.43588 | -53.99680 | 35058 ft | 434 kts | 264° |
| 2026-05-07 08:18 | 49.43226 | -54.08892 | 35103 ft | 433 kts | 263° |
| 2026-05-07 08:18 | 49.42872 | -54.18106 | 35092 ft | 433 kts | 263° |
| 2026-05-07 08:19 | 49.42522 | -54.27384 | 35176 ft | 433 kts | 263° |
| 2026-05-07 08:19 | 49.42188 | -54.36531 | 35751 ft | 424 kts | 263° |
| 2026-05-07 08:19 | 49.42021 | -54.41022 | 36087 ft | 424 kts | 263° |
| 2026-05-07 08:20 | 49.41856 | -54.45609 | 36072 ft | 428 kts | 263° |
| 2026-05-07 08:20 | 49.41531 | -54.54791 | 36088 ft | 430 kts | 264° |
| 2026-05-07 08:21 | 49.41221 | -54.63903 | 36075 ft | 427 kts | 264° |
| 2026-05-07 08:21 | 49.40822 | -54.72865 | 36074 ft | 426 kts | 261° |
| 2026-05-07 08:22 | 49.40292 | -54.81901 | 36065 ft | 425 kts | 261° |
| 2026-05-07 08:22 | 49.39785 | -54.91020 | 36073 ft | 425 kts | 261° |
| 2026-05-07 08:23 | 49.39299 | -55.00085 | 36054 ft | 426 kts | 261° |
| 2026-05-07 08:23 | 49.38823 | -55.09129 | 36060 ft | 426 kts | 261° |
| 2026-05-07 08:24 | 49.38353 | -55.18231 | 36055 ft | 426 kts | 261° |
| 2026-05-07 08:24 | 49.37896 | -55.27272 | 36046 ft | 426 kts | 261° |
| 2026-05-07 08:25 | 49.37434 | -55.36359 | 36052 ft | 427 kts | 261° |
| 2026-05-07 08:25 | 49.36985 | -55.45481 | 36055 ft | 427 kts | 261° |
| 2026-05-07 08:26 | 49.36326 | -55.59106 | 36050 ft | 427 kts | 261° |
| 2026-05-07 08:26 | 49.35891 | -55.68154 | 36028 ft | 428 kts | 261° |
| 2026-05-07 08:27 | 49.35468 | -55.77207 | 36042 ft | 427 kts | 261° |
| 2026-05-07 08:27 | 49.35048 | -55.86338 | 36050 ft | 429 kts | 261° |
| 2026-05-07 08:28 | 49.34628 | -55.95540 | 36029 ft | 430 kts | 260° |
| 2026-05-07 08:28 | 49.34011 | -56.04673 | 36048 ft | 428 kts | 258° |
| 2026-05-07 08:29 | 49.33392 | -56.13740 | 36043 ft | 429 kts | 259° |
| 2026-05-07 08:29 | 49.32799 | -56.22884 | 36032 ft | 429 kts | 259° |
| 2026-05-07 08:30 | 49.32212 | -56.32022 | 36022 ft | 430 kts | 259° |
| 2026-05-07 08:30 | 49.31634 | -56.41171 | 36032 ft | 431 kts | 259° |
| 2026-05-07 08:31 | 49.31058 | -56.50341 | 36010 ft | 432 kts | 259° |
| 2026-05-07 08:31 | 49.30492 | -56.59531 | 36000 ft | 431 kts | 259° |
| 2026-05-07 08:32 | 49.29942 | -56.68569 | 36144 ft | 431 kts | 258° |
| 2026-05-07 08:32 | 49.29661 | -56.73172 | 35859 ft | 432 kts | 258° |
| 2026-05-07 08:32 | 49.29386 | -56.77775 | 35981 ft | 433 kts | 259° |
| 2026-05-07 08:33 | 49.28841 | -56.86947 | 35996 ft | 433 kts | 259° |
| 2026-05-07 08:33 | 49.28300 | -56.96191 | 35997 ft | 432 kts | 259° |
| 2026-05-07 08:34 | 49.27766 | -57.05413 | 36003 ft | 432 kts | 259° |
| 2026-05-07 08:34 | 49.27242 | -57.14633 | 35991 ft | 434 kts | 259° |
| 2026-05-07 08:35 | 49.26701 | -57.23850 | 35993 ft | 433 kts | 257° |
| 2026-05-07 08:35 | 49.25967 | -57.32965 | 36002 ft | 432 kts | 257° |
| 2026-05-07 08:36 | 49.25246 | -57.42117 | 35998 ft | 432 kts | 257° |
| 2026-05-07 08:36 | 49.24547 | -57.51289 | 35986 ft | 431 kts | 257° |
| 2026-05-07 08:37 | 49.23866 | -57.60359 | 35982 ft | 430 kts | 257° |
| 2026-05-07 08:37 | 49.23189 | -57.69489 | 35983 ft | 430 kts | 257° |
| 2026-05-07 08:38 | 49.22522 | -57.78555 | 35969 ft | 429 kts | 257° |
| 2026-05-07 08:38 | 49.21866 | -57.87593 | 35965 ft | 429 kts | 257° |
| 2026-05-07 08:39 | 49.21207 | -57.96693 | 35965 ft | 429 kts | 257° |
| 2026-05-07 08:39 | 49.20559 | -58.05764 | 35962 ft | 429 kts | 257° |
| 2026-05-07 08:40 | 49.19921 | -58.14828 | 35957 ft | 430 kts | 257° |
| 2026-05-07 08:40 | 49.19290 | -58.23887 | 35952 ft | 430 kts | 257° |
| 2026-05-07 08:41 | 49.18665 | -58.32963 | 35957 ft | 430 kts | 258° |
| 2026-05-07 08:41 | 49.18046 | -58.42048 | 35951 ft | 430 kts | 258° |
| 2026-05-07 08:42 | 49.17397 | -58.51161 | 35941 ft | 430 kts | 256° |
| 2026-05-07 08:42 | 49.16567 | -58.60154 | 35942 ft | 429 kts | 256° |
| 2026-05-07 08:43 | 49.15762 | -58.69115 | 35931 ft | 429 kts | 256° |
| 2026-05-07 08:43 | 49.14978 | -58.78118 | 35919 ft | 428 kts | 256° |
| 2026-05-07 08:44 | 49.14205 | -58.87075 | 35914 ft | 427 kts | 256° |
| 2026-05-07 08:44 | 49.13436 | -58.96058 | 35905 ft | 428 kts | 257° |
| 2026-05-07 08:45 | 49.12677 | -59.05015 | 35918 ft | 428 kts | 256° |
| 2026-05-07 08:45 | 49.11921 | -59.14009 | 35906 ft | 427 kts | 257° |
| 2026-05-07 08:46 | 49.11176 | -59.22980 | 35903 ft | 428 kts | 257° |
| 2026-05-07 08:46 | 49.10434 | -59.31951 | 35903 ft | 427 kts | 257° |
| 2026-05-07 08:47 | 49.09698 | -59.40962 | 35892 ft | 427 kts | 257° |
| 2026-05-07 08:47 | 49.08979 | -59.49851 | 35890 ft | 426 kts | 257° |
| 2026-05-07 08:48 | 49.08260 | -59.58802 | 35895 ft | 426 kts | 258° |
| 2026-05-07 08:48 | 49.07552 | -59.67697 | 35887 ft | 425 kts | 257° |
| 2026-05-07 08:49 | 49.06830 | -59.76619 | 35894 ft | 423 kts | 256° |
| 2026-05-07 08:49 | 49.05918 | -59.85447 | 35889 ft | 421 kts | 256° |
| 2026-05-07 08:50 | 49.05029 | -59.94245 | 35889 ft | 420 kts | 256° |
| 2026-05-07 08:50 | 49.04162 | -60.03003 | 35885 ft | 420 kts | 256° |
| 2026-05-07 08:51 | 49.03310 | -60.11763 | 35884 ft | 420 kts | 256° |
| 2026-05-07 08:51 | 49.02458 | -60.20555 | 35885 ft | 421 kts | 256° |
| 2026-05-07 08:52 | 49.01609 | -60.29371 | 35876 ft | 422 kts | 256° |
| 2026-05-07 08:52 | 49.00769 | -60.38172 | 35861 ft | 422 kts | 256° |
| 2026-05-07 08:53 | 48.99934 | -60.47012 | 35866 ft | 422 kts | 256° |
| 2026-05-07 08:53 | 48.99103 | -60.55835 | 35847 ft | 422 kts | 256° |
| 2026-05-07 08:54 | 48.98281 | -60.64648 | 35840 ft | 422 kts | 257° |
| 2026-05-07 08:54 | 48.97467 | -60.73466 | 35852 ft | 423 kts | 256° |
| 2026-05-07 08:55 | 48.96657 | -60.82305 | 35831 ft | 423 kts | 256° |
| 2026-05-07 08:55 | 48.95857 | -60.91118 | 35838 ft | 423 kts | 256° |
| 2026-05-07 08:56 | 48.95054 | -61.00016 | 35830 ft | 423 kts | 256° |
| 2026-05-07 08:56 | 48.94080 | -61.08773 | 35823 ft | 421 kts | 254° |
| 2026-05-07 08:57 | 48.93093 | -61.17489 | 35806 ft | 422 kts | 255° |
| 2026-05-07 08:57 | 48.92120 | -61.26288 | 35814 ft | 422 kts | 255° |
| 2026-05-07 08:58 | 48.91166 | -61.35052 | 35804 ft | 422 kts | 255° |
| 2026-05-07 08:58 | 48.90212 | -61.43845 | 35794 ft | 422 kts | 255° |
| 2026-05-07 08:59 | 48.89255 | -61.52710 | 35788 ft | 424 kts | 255° |
| 2026-05-07 08:59 | 48.88316 | -61.61497 | 35779 ft | 424 kts | 255° |
| 2026-05-07 09:00 | 48.87381 | -61.70323 | 35769 ft | 425 kts | 255° |
| 2026-05-07 09:00 | 48.86446 | -61.79182 | 35758 ft | 425 kts | 255° |
| 2026-05-07 09:01 | 48.85525 | -61.87982 | 35761 ft | 425 kts | 255° |
| 2026-05-07 09:01 | 48.84610 | -61.96809 | 35751 ft | 425 kts | 255° |
| 2026-05-07 09:02 | 48.83689 | -62.05708 | 35761 ft | 426 kts | 255° |
| 2026-05-07 09:02 | 48.82785 | -62.14563 | 35764 ft | 425 kts | 255° |
| 2026-05-07 09:03 | 48.81888 | -62.23405 | 35752 ft | 425 kts | 255° |
| 2026-05-07 09:03 | 48.80847 | -62.32188 | 35754 ft | 425 kts | 253° |
| 2026-05-07 09:04 | 48.79747 | -62.40982 | 35741 ft | 426 kts | 253° |
| 2026-05-07 09:04 | 48.78664 | -62.49807 | 35742 ft | 427 kts | 253° |
| 2026-05-07 09:05 | 48.77606 | -62.58624 | 35732 ft | 427 kts | 253° |
| 2026-05-07 09:05 | 48.76543 | -62.67476 | 35732 ft | 428 kts | 253° |
| 2026-05-07 09:06 | 48.75485 | -62.76335 | 35717 ft | 428 kts | 253° |
| 2026-05-07 09:06 | 48.74436 | -62.85213 | 35710 ft | 429 kts | 253° |
| 2026-05-07 09:07 | 48.73392 | -62.94081 | 35698 ft | 431 kts | 253° |
| 2026-05-07 09:07 | 48.72345 | -63.03020 | 35679 ft | 433 kts | 253° |
| 2026-05-07 09:08 | 48.71305 | -63.11997 | 35677 ft | 434 kts | 253° |
| 2026-05-07 09:08 | 48.70272 | -63.20961 | 35670 ft | 435 kts | 254° |
| 2026-05-07 09:09 | 48.69236 | -63.29991 | 35664 ft | 437 kts | 254° |
| 2026-05-07 09:09 | 48.68212 | -63.39004 | 35651 ft | 437 kts | 253° |
| 2026-05-07 09:10 | 48.67186 | -63.48074 | 35651 ft | 438 kts | 254° |
| 2026-05-07 09:10 | 48.66001 | -63.57122 | 35636 ft | 437 kts | 252° |
| 2026-05-07 09:11 | 48.64779 | -63.66072 | 35633 ft | 438 kts | 251° |
| 2026-05-07 09:11 | 48.63576 | -63.75089 | 35623 ft | 438 kts | 252° |
| 2026-05-07 09:12 | 48.62382 | -63.84130 | 35623 ft | 439 kts | 252° |
| 2026-05-07 09:12 | 48.61194 | -63.93189 | 35617 ft | 441 kts | 252° |
| 2026-05-07 09:13 | 48.60011 | -64.02271 | 35616 ft | 441 kts | 252° |
| 2026-05-07 09:13 | 48.58824 | -64.11411 | 35617 ft | 441 kts | 252° |
| 2026-05-07 09:14 | 48.57650 | -64.20503 | 35613 ft | 443 kts | 252° |
| 2026-05-07 09:14 | 48.56481 | -64.29638 | 35611 ft | 444 kts | 252° |
| 2026-05-07 09:15 | 48.55312 | -64.38820 | 35594 ft | 444 kts | 252° |
| 2026-05-07 09:15 | 48.54143 | -64.48054 | 35609 ft | 445 kts | 253° |
| 2026-05-07 09:16 | 48.52988 | -64.57248 | 35596 ft | 445 kts | 253° |
| 2026-05-07 09:16 | 48.51849 | -64.66363 | 35598 ft | 445 kts | 252° |
| 2026-05-07 09:17 | 48.50682 | -64.75453 | 35576 ft | 443 kts | 251° |
| 2026-05-07 09:17 | 48.49319 | -64.84594 | 35564 ft | 445 kts | 250° |
| 2026-05-07 09:18 | 48.47990 | -64.93663 | 35578 ft | 446 kts | 251° |
| 2026-05-07 09:18 | 48.46670 | -65.02801 | 35699 ft | 445 kts | 251° |
| 2026-05-07 09:19 | 48.46017 | -65.07378 | 35592 ft | 443 kts | 251° |
| 2026-05-07 09:19 | 48.45380 | -65.11855 | 35587 ft | 443 kts | 251° |
| 2026-05-07 09:19 | 48.44082 | -65.20958 | 35578 ft | 444 kts | 251° |
| 2026-05-07 09:20 | 48.42791 | -65.30064 | 35582 ft | 444 kts | 251° |
| 2026-05-07 09:20 | 48.41502 | -65.39224 | 35571 ft | 445 kts | 252° |
| 2026-05-07 09:21 | 48.40225 | -65.48339 | 35580 ft | 445 kts | 252° |
| 2026-05-07 09:21 | 48.38955 | -65.57468 | 35596 ft | 444 kts | 252° |
| 2026-05-07 09:22 | 48.37714 | -65.66412 | 35597 ft | 444 kts | 252° |
| 2026-05-07 09:22 | 48.36447 | -65.75619 | 35599 ft | 443 kts | 252° |
| 2026-05-07 09:23 | 48.35207 | -65.84690 | 35607 ft | 443 kts | 252° |
| 2026-05-07 09:23 | 48.33977 | -65.93722 | 35611 ft | 443 kts | 252° |
| 2026-05-07 09:24 | 48.32594 | -66.02766 | 35614 ft | 442 kts | 250° |
| 2026-05-07 09:24 | 48.31161 | -66.11734 | 35575 ft | 441 kts | 251° |
| 2026-05-07 09:25 | 48.29745 | -66.20749 | 35603 ft | 442 kts | 251° |
| 2026-05-07 09:25 | 48.28355 | -66.29735 | 35609 ft | 441 kts | 252° |
| 2026-05-07 09:26 | 48.26970 | -66.38705 | 35630 ft | 443 kts | 252° |
| 2026-05-07 09:26 | 48.25577 | -66.47759 | 35593 ft | 443 kts | 252° |
| 2026-05-07 09:27 | 48.24201 | -66.56777 | 35633 ft | 443 kts | 252° |
| 2026-05-07 09:28 | 48.22146 | -66.70302 | 35620 ft | 444 kts | 252° |
| 2026-05-07 09:28 | 48.20775 | -66.79382 | 35616 ft | 443 kts | 252° |
| 2026-05-07 09:29 | 48.19420 | -66.88422 | 35608 ft | 444 kts | 252° |
| 2026-05-07 09:29 | 48.18077 | -66.97422 | 35622 ft | 444 kts | 253° |
| 2026-05-07 09:30 | 48.16736 | -67.06449 | 35627 ft | 443 kts | 253° |
| 2026-05-07 09:30 | 48.15396 | -67.15513 | 35654 ft | 444 kts | 253° |
| 2026-05-07 09:31 | 48.13923 | -67.24468 | 35659 ft | 443 kts | 251° |
| 2026-05-07 09:31 | 48.12387 | -67.33414 | 35665 ft | 443 kts | 252° |
| 2026-05-07 09:32 | 48.10879 | -67.42369 | 35658 ft | 443 kts | 252° |
| 2026-05-07 09:32 | 48.09384 | -67.51334 | 35645 ft | 442 kts | 252° |
| 2026-05-07 09:33 | 48.07896 | -67.60294 | 35645 ft | 442 kts | 253° |
| 2026-05-07 09:33 | 48.06441 | -67.69097 | 35661 ft | 442 kts | 252° |
| 2026-05-07 09:34 | 48.04972 | -67.78036 | 35665 ft | 441 kts | 252° |
| 2026-05-07 09:34 | 48.03511 | -67.86955 | 35675 ft | 442 kts | 253° |
| 2026-05-07 09:35 | 48.02055 | -67.95892 | 35677 ft | 442 kts | 253° |
| 2026-05-07 09:35 | 48.00603 | -68.04837 | 35669 ft | 442 kts | 253° |
| 2026-05-07 09:36 | 47.99154 | -68.13813 | 35679 ft | 442 kts | 253° |
| 2026-05-07 09:36 | 47.97714 | -68.22775 | 35667 ft | 442 kts | 253° |
| 2026-05-07 09:37 | 47.96287 | -68.31703 | 35676 ft | 441 kts | 253° |
| 2026-05-07 09:37 | 47.94833 | -68.40597 | 35687 ft | 441 kts | 252° |
| 2026-05-07 09:38 | 47.93207 | -68.49463 | 35690 ft | 440 kts | 252° |
| 2026-05-07 09:38 | 47.91607 | -68.58308 | 35688 ft | 440 kts | 253° |
| 2026-05-07 09:39 | 47.90043 | -68.67089 | 35694 ft | 440 kts | 252° |
| 2026-05-07 09:39 | 47.88492 | -68.75841 | 35693 ft | 440 kts | 252° |
| 2026-05-07 09:40 | 47.87018 | -68.84176 | 35697 ft | 440 kts | 252° |
| 2026-05-07 09:40 | 47.85428 | -68.93215 | 35697 ft | 440 kts | 252° |
| 2026-05-07 09:41 | 47.83875 | -69.02065 | 35705 ft | 439 kts | 253° |
| 2026-05-07 09:41 | 47.82333 | -69.10913 | 35699 ft | 439 kts | 253° |
| 2026-05-07 09:42 | 47.80801 | -69.19728 | 35690 ft | 439 kts | 253° |
| 2026-05-07 09:42 | 47.79278 | -69.28530 | 35689 ft | 439 kts | 253° |
| 2026-05-07 09:43 | 47.77761 | -69.37339 | 35696 ft | 438 kts | 253° |
| 2026-05-07 09:43 | 47.76257 | -69.46117 | 35697 ft | 438 kts | 253° |
| 2026-05-07 09:44 | 47.75106 | -69.55073 | 35713 ft | 442 kts | 262° |
| 2026-05-07 09:44 | 47.74056 | -69.64041 | 35713 ft | 438 kts | 250° |
| 2026-05-07 09:45 | 47.71962 | -69.72463 | 35716 ft | 435 kts | 246° |
| 2026-05-07 09:45 | 47.69748 | -69.80699 | 35713 ft | 434 kts | 246° |
| 2026-05-07 09:46 | 47.67486 | -69.89002 | 35712 ft | 433 kts | 246° |
| 2026-05-07 09:46 | 47.65222 | -69.97294 | 35719 ft | 433 kts | 246° |
| 2026-05-07 09:47 | 47.62965 | -70.05575 | 35717 ft | 433 kts | 246° |
| 2026-05-07 09:47 | 47.60715 | -70.13855 | 35722 ft | 432 kts | 246° |
| 2026-05-07 09:48 | 47.58474 | -70.22124 | 35724 ft | 432 kts | 246° |
| 2026-05-07 09:48 | 47.56242 | -70.30377 | 35726 ft | 431 kts | 246° |
| 2026-05-07 09:49 | 47.54008 | -70.38659 | 35727 ft | 430 kts | 246° |
| 2026-05-07 09:49 | 47.51794 | -70.46887 | 35729 ft | 431 kts | 247° |
| 2026-05-07 09:50 | 47.49586 | -70.55112 | 35731 ft | 431 kts | 247° |
| 2026-05-07 09:50 | 47.47362 | -70.63429 | 35721 ft | 430 kts | 247° |
| 2026-05-07 09:51 | 47.45220 | -70.71450 | 35706 ft | 430 kts | 246° |
| 2026-05-07 09:51 | 47.43009 | -70.79758 | 35691 ft | 429 kts | 247° |
| 2026-05-07 09:52 | 47.40768 | -70.87942 | 35697 ft | 428 kts | 245° |
| 2026-05-07 09:52 | 47.38408 | -70.96031 | 35686 ft | 428 kts | 245° |
| 2026-05-07 09:53 | 47.36068 | -71.04146 | 35677 ft | 428 kts | 245° |
| 2026-05-07 09:53 | 47.33753 | -71.12225 | 35689 ft | 427 kts | 246° |
| 2026-05-07 09:54 | 47.31443 | -71.20315 | 35685 ft | 427 kts | 246° |
| 2026-05-07 09:54 | 47.29147 | -71.28379 | 35684 ft | 427 kts | 246° |
| 2026-05-07 09:55 | 47.26828 | -71.36526 | 35684 ft | 427 kts | 246° |
| 2026-05-07 09:55 | 47.24538 | -71.44604 | 35681 ft | 427 kts | 246° |
| 2026-05-07 09:56 | 47.22240 | -71.52728 | 35682 ft | 428 kts | 246° |
| 2026-05-07 09:56 | 47.19957 | -71.60815 | 35688 ft | 427 kts | 246° |
| 2026-05-07 09:57 | 47.17692 | -71.68859 | 35694 ft | 427 kts | 246° |
| 2026-05-07 09:57 | 47.15439 | -71.76889 | 35697 ft | 427 kts | 246° |
| 2026-05-07 09:58 | 47.13177 | -71.84966 | 35704 ft | 426 kts | 246° |
| 2026-05-07 09:58 | 47.10925 | -71.93028 | 35699 ft | 426 kts | 246° |
| 2026-05-07 09:59 | 47.08605 | -72.01090 | 35704 ft | 426 kts | 245° |
| 2026-05-07 09:59 | 47.06158 | -72.09106 | 35703 ft | 426 kts | 245° |
| 2026-05-07 10:00 | 47.03761 | -72.17055 | 35713 ft | 426 kts | 245° |
| 2026-05-07 10:00 | 47.01364 | -72.25059 | 35721 ft | 427 kts | 245° |
| 2026-05-07 10:01 | 46.98984 | -72.33021 | 35723 ft | 427 kts | 245° |
| 2026-05-07 10:01 | 46.96599 | -72.41012 | 35728 ft | 426 kts | 246° |
| 2026-05-07 10:02 | 46.94214 | -72.49026 | 35732 ft | 426 kts | 246° |
| 2026-05-07 10:02 | 46.91850 | -72.56987 | 35726 ft | 425 kts | 246° |
| 2026-05-07 10:03 | 46.89523 | -72.64847 | 35742 ft | 426 kts | 246° |
| 2026-05-07 10:03 | 46.87140 | -72.72907 | 35749 ft | 426 kts | 245° |
| 2026-05-07 10:04 | 46.84871 | -72.80602 | 35754 ft | 426 kts | 245° |
| 2026-05-07 10:04 | 46.82590 | -72.88357 | 35752 ft | 426 kts | 246° |
| 2026-05-07 10:05 | 46.80273 | -72.96252 | 35747 ft | 426 kts | 246° |
| 2026-05-07 10:05 | 46.77924 | -73.04274 | 35743 ft | 426 kts | 246° |
| 2026-05-07 10:06 | 46.75541 | -73.12228 | 35740 ft | 426 kts | 244° |
| 2026-05-07 10:06 | 46.73039 | -73.20081 | 35743 ft | 426 kts | 244° |
| 2026-05-07 10:07 | 46.70549 | -73.27977 | 35736 ft | 426 kts | 245° |
| 2026-05-07 10:07 | 46.68073 | -73.35888 | 35731 ft | 427 kts | 245° |
| 2026-05-07 10:08 | 46.65601 | -73.43801 | 35735 ft | 427 kts | 245° |
| 2026-05-07 10:08 | 46.63135 | -73.51707 | 35733 ft | 427 kts | 245° |
| 2026-05-07 10:09 | 46.60678 | -73.59605 | 35742 ft | 426 kts | 245° |
| 2026-05-07 10:09 | 46.58296 | -73.67278 | 35742 ft | 426 kts | 245° |
| 2026-05-07 10:10 | 46.55880 | -73.75075 | 35753 ft | 426 kts | 245° |
| 2026-05-07 10:10 | 46.53436 | -73.82985 | 35741 ft | 426 kts | 245° |
| 2026-05-07 10:11 | 46.51017 | -73.90825 | 35736 ft | 426 kts | 245° |
| 2026-05-07 10:11 | 46.48583 | -73.98731 | 35733 ft | 426 kts | 245° |
| 2026-05-07 10:12 | 46.46160 | -74.06628 | 35740 ft | 426 kts | 246° |
| 2026-05-07 10:12 | 46.43745 | -74.14510 | 35748 ft | 427 kts | 245° |
| 2026-05-07 10:13 | 46.41299 | -74.22329 | 35752 ft | 426 kts | 244° |
| 2026-05-07 10:13 | 46.38709 | -74.30134 | 35752 ft | 426 kts | 244° |
| 2026-05-07 10:14 | 46.36155 | -74.37901 | 35762 ft | 426 kts | 245° |
| 2026-05-07 10:14 | 46.33612 | -74.45687 | 35769 ft | 426 kts | 245° |
| 2026-05-07 10:15 | 46.31078 | -74.53458 | 35781 ft | 426 kts | 245° |
| 2026-05-07 10:15 | 46.28546 | -74.61239 | 35781 ft | 426 kts | 245° |
| 2026-05-07 10:16 | 46.26072 | -74.68851 | 35777 ft | 427 kts | 244° |
| 2026-05-07 10:16 | 46.23555 | -74.76623 | 35778 ft | 427 kts | 244° |
| 2026-05-07 10:17 | 46.21027 | -74.84438 | 35781 ft | 427 kts | 245° |
| 2026-05-07 10:17 | 46.18514 | -74.92230 | 35778 ft | 426 kts | 245° |
| 2026-05-07 10:18 | 46.16008 | -75.00008 | 35772 ft | 426 kts | 245° |
| 2026-05-07 10:18 | 46.13500 | -75.07806 | 35780 ft | 427 kts | 245° |
| 2026-05-07 10:19 | 46.10999 | -75.15609 | 35787 ft | 427 kts | 245° |
| 2026-05-07 10:19 | 46.08518 | -75.23360 | 35779 ft | 427 kts | 245° |
| 2026-05-07 10:20 | 46.05977 | -75.31199 | 35793 ft | 428 kts | 244° |
| 2026-05-07 10:20 | 46.03365 | -75.38923 | 35807 ft | 428 kts | 245° |
| 2026-05-07 10:21 | 46.00766 | -75.46677 | 35804 ft | 428 kts | 245° |
| 2026-05-07 10:21 | 45.98190 | -75.54402 | 35807 ft | 427 kts | 245° |
| 2026-05-07 10:22 | 45.95612 | -75.62144 | 35808 ft | 428 kts | 245° |
| 2026-05-07 10:22 | 45.93093 | -75.69718 | 35796 ft | 428 kts | 245° |
| 2026-05-07 10:23 | 45.90654 | -75.77554 | 35805 ft | 430 kts | 246° |
| 2026-05-07 10:23 | 45.88007 | -75.85222 | 35811 ft | 431 kts | 240° |
| 2026-05-07 10:24 | 45.84893 | -75.92414 | 35819 ft | 430 kts | 239° |
| 2026-05-07 10:24 | 45.81661 | -75.99646 | 35823 ft | 429 kts | 239° |
| 2026-05-07 10:25 | 45.78423 | -76.06861 | 35838 ft | 428 kts | 239° |
| 2026-05-07 10:25 | 45.75201 | -76.14040 | 35836 ft | 428 kts | 239° |
| 2026-05-07 10:26 | 45.71955 | -76.21274 | 35832 ft | 428 kts | 239° |
| 2026-05-07 10:26 | 45.68730 | -76.28473 | 35838 ft | 429 kts | 239° |
| 2026-05-07 10:27 | 45.65503 | -76.35683 | 35848 ft | 428 kts | 239° |
| 2026-05-07 10:27 | 45.62291 | -76.42876 | 35848 ft | 429 kts | 239° |
| 2026-05-07 10:28 | 45.59076 | -76.50082 | 35856 ft | 428 kts | 239° |
| 2026-05-07 10:28 | 45.55868 | -76.57280 | 35859 ft | 428 kts | 240° |
| 2026-05-07 10:29 | 45.52658 | -76.64496 | 35870 ft | 428 kts | 240° |
| 2026-05-07 10:29 | 45.49563 | -76.71458 | 35869 ft | 428 kts | 239° |
| 2026-05-07 10:30 | 45.44763 | -76.82287 | 35869 ft | 428 kts | 239° |
| 2026-05-07 10:30 | 45.41580 | -76.89472 | 35877 ft | 428 kts | 240° |
| 2026-05-07 10:31 | 45.38289 | -76.96608 | 35874 ft | 428 kts | 238° |
| 2026-05-07 10:31 | 45.34968 | -77.03681 | 35873 ft | 428 kts | 238° |
| 2026-05-07 10:32 | 45.31666 | -77.10767 | 35872 ft | 427 kts | 239° |
| 2026-05-07 10:32 | 45.28374 | -77.17850 | 35877 ft | 427 kts | 239° |
| 2026-05-07 10:33 | 45.25107 | -77.24889 | 35887 ft | 427 kts | 239° |
| 2026-05-07 10:33 | 45.21818 | -77.31981 | 35878 ft | 427 kts | 239° |
| 2026-05-07 10:34 | 45.18545 | -77.39052 | 35876 ft | 426 kts | 239° |
| 2026-05-07 10:34 | 45.15271 | -77.46132 | 35879 ft | 426 kts | 239° |
| 2026-05-07 10:35 | 45.12006 | -77.53200 | 35881 ft | 426 kts | 240° |
| 2026-05-07 10:35 | 45.08747 | -77.60270 | 35883 ft | 425 kts | 240° |
| 2026-05-07 10:36 | 45.05519 | -77.67276 | 35889 ft | 425 kts | 239° |
| 2026-05-07 10:36 | 45.02323 | -77.74225 | 35890 ft | 425 kts | 239° |
| 2026-05-07 10:37 | 44.99118 | -77.81204 | 35887 ft | 425 kts | 239° |
| 2026-05-07 10:37 | 44.95888 | -77.88246 | 35885 ft | 425 kts | 239° |
| 2026-05-07 10:38 | 44.92556 | -77.95213 | 35892 ft | 425 kts | 238° |
| 2026-05-07 10:38 | 44.89233 | -78.02063 | 35900 ft | 424 kts | 238° |
| 2026-05-07 10:39 | 44.85931 | -78.08910 | 35898 ft | 423 kts | 239° |
| 2026-05-07 10:39 | 44.82654 | -78.15728 | 35900 ft | 422 kts | 239° |
| 2026-05-07 10:40 | 44.79325 | -78.22660 | 35911 ft | 423 kts | 239° |
| 2026-05-07 10:40 | 44.76021 | -78.29547 | 35909 ft | 423 kts | 239° |
| 2026-05-07 10:41 | 44.72717 | -78.36440 | 35909 ft | 423 kts | 239° |
| 2026-05-07 10:41 | 44.69427 | -78.43316 | 35914 ft | 422 kts | 239° |
| 2026-05-07 10:42 | 44.66154 | -78.50165 | 35914 ft | 422 kts | 239° |
| 2026-05-07 10:42 | 44.62890 | -78.57001 | 35910 ft | 421 kts | 239° |
| 2026-05-07 10:43 | 44.59597 | -78.63911 | 35914 ft | 421 kts | 240° |
| 2026-05-07 10:43 | 44.56359 | -78.70706 | 35916 ft | 421 kts | 239° |
| 2026-05-07 10:44 | 44.53133 | -78.77495 | 35921 ft | 421 kts | 239° |
| 2026-05-07 10:44 | 44.49873 | -78.84357 | 35919 ft | 421 kts | 239° |
| 2026-05-07 10:45 | 44.46585 | -78.91135 | 35919 ft | 421 kts | 238° |
| 2026-05-07 10:45 | 44.43239 | -78.97936 | 35926 ft | 422 kts | 239° |
| 2026-05-07 10:46 | 44.39907 | -79.04753 | 35933 ft | 421 kts | 239° |
| 2026-05-07 10:46 | 44.36588 | -79.11549 | 36180 ft | 422 kts | 239° |
| 2026-05-07 10:47 | 44.34946 | -79.14940 | 36623 ft | 419 kts | 240° |
| 2026-05-07 10:47 | 44.33335 | -79.18353 | 36864 ft | 421 kts | 239° |
| 2026-05-07 10:47 | 44.31649 | -79.21672 | 37156 ft | 423 kts | 237° |
| 2026-05-07 10:47 | 44.29819 | -79.24897 | 37446 ft | 425 kts | 233° |
| 2026-05-07 10:48 | 44.27827 | -79.28043 | 37731 ft | 426 kts | 232° |
| 2026-05-07 10:48 | 44.25842 | -79.31107 | 37926 ft | 427 kts | 232° |
| 2026-05-07 10:48 | 44.21817 | -79.37257 | 37943 ft | 427 kts | 232° |
| 2026-05-07 10:49 | 44.17796 | -79.43381 | 37947 ft | 427 kts | 232° |
| 2026-05-07 10:49 | 44.13777 | -79.49496 | 37944 ft | 427 kts | 232° |
| 2026-05-07 10:50 | 44.09740 | -79.55648 | 37944 ft | 427 kts | 232° |
| 2026-05-07 10:50 | 44.05715 | -79.61783 | 37943 ft | 427 kts | 232° |
| 2026-05-07 10:51 | 44.01717 | -79.67876 | 37948 ft | 428 kts | 232° |
| 2026-05-07 10:51 | 43.97746 | -79.73941 | 37945 ft | 428 kts | 232° |
| 2026-05-07 10:52 | 43.93747 | -79.80049 | 37931 ft | 427 kts | 232° |
| 2026-05-07 10:52 | 43.89745 | -79.86169 | 37931 ft | 426 kts | 232° |
| 2026-05-07 10:53 | 43.85780 | -79.92236 | 37932 ft | 426 kts | 232° |
| 2026-05-07 10:53 | 43.81856 | -79.98243 | 37924 ft | 425 kts | 232° |
| 2026-05-07 10:54 | 43.77827 | -80.04362 | 37931 ft | 426 kts | 231° |
| 2026-05-07 10:54 | 43.73748 | -80.10329 | 37933 ft | 425 kts | 231° |
| 2026-05-07 10:55 | 43.69674 | -80.16327 | 37924 ft | 425 kts | 232° |
| 2026-05-07 10:55 | 43.65625 | -80.22304 | 37928 ft | 424 kts | 232° |
| 2026-05-07 10:56 | 43.61583 | -80.28277 | 37941 ft | 424 kts | 232° |
| 2026-05-07 10:56 | 43.57535 | -80.34264 | 37939 ft | 424 kts | 232° |
| 2026-05-07 10:57 | 43.53481 | -80.40260 | 37933 ft | 423 kts | 232° |
| 2026-05-07 10:57 | 43.49469 | -80.46197 | 37931 ft | 423 kts | 232° |
| 2026-05-07 10:58 | 43.45430 | -80.52182 | 37939 ft | 422 kts | 232° |
| 2026-05-07 10:58 | 43.41443 | -80.58092 | 37935 ft | 421 kts | 232° |
| 2026-05-07 10:59 | 43.37443 | -80.64029 | 37929 ft | 422 kts | 232° |
| 2026-05-07 10:59 | 43.33479 | -80.69914 | 37930 ft | 423 kts | 232° |
| 2026-05-07 11:00 | 43.29533 | -80.75780 | 37932 ft | 422 kts | 232° |
| 2026-05-07 11:00 | 43.25542 | -80.81717 | 37932 ft | 421 kts | 232° |
| 2026-05-07 11:01 | 43.21567 | -80.87612 | 37935 ft | 421 kts | 232° |
| 2026-05-07 11:01 | 43.17501 | -80.93503 | 37935 ft | 421 kts | 232° |
| 2026-05-07 11:02 | 43.13491 | -80.99334 | 37940 ft | 421 kts | 232° |
| 2026-05-07 11:02 | 43.09535 | -81.05298 | 37938 ft | 417 kts | 236° |
| 2026-05-07 11:03 | 43.06352 | -81.11975 | 37943 ft | 414 kts | 245° |
| 2026-05-07 11:03 | 43.04179 | -81.19210 | 37933 ft | 411 kts | 252° |
| 2026-05-07 11:04 | 43.02263 | -81.26623 | 37938 ft | 409 kts | 252° |
| 2026-05-07 11:04 | 43.00368 | -81.33942 | 37944 ft | 407 kts | 252° |
| 2026-05-07 11:05 | 42.98475 | -81.41248 | 37950 ft | 407 kts | 252° |
| 2026-05-07 11:05 | 42.96588 | -81.48537 | 37938 ft | 407 kts | 253° |
| 2026-05-07 11:06 | 42.94689 | -81.55894 | 37939 ft | 407 kts | 252° |
| 2026-05-07 11:06 | 42.92814 | -81.63174 | 37950 ft | 407 kts | 253° |
| 2026-05-07 11:07 | 42.90914 | -81.70569 | 37945 ft | 407 kts | 252° |
| 2026-05-07 11:07 | 42.89032 | -81.77915 | 37948 ft | 407 kts | 252° |
| 2026-05-07 11:08 | 42.87161 | -81.85236 | 37951 ft | 406 kts | 253° |
| 2026-05-07 11:08 | 42.85306 | -81.92509 | 37956 ft | 406 kts | 253° |
| 2026-05-07 11:09 | 42.83449 | -81.99822 | 37952 ft | 406 kts | 253° |
| 2026-05-07 11:09 | 42.81589 | -82.07141 | 37946 ft | 406 kts | 253° |
| 2026-05-07 11:10 | 42.79742 | -82.14442 | 37960 ft | 406 kts | 253° |
| 2026-05-07 11:10 | 42.77902 | -82.21730 | 37966 ft | 405 kts | 253° |
| 2026-05-07 11:11 | 42.76055 | -82.28991 | 37968 ft | 406 kts | 252° |
| 2026-05-07 11:11 | 42.74126 | -82.36234 | 37973 ft | 406 kts | 252° |
| 2026-05-07 11:12 | 42.72213 | -82.43476 | 37970 ft | 406 kts | 252° |
| 2026-05-07 11:12 | 42.70311 | -82.50701 | 37969 ft | 406 kts | 252° |
| 2026-05-07 11:13 | 42.68304 | -82.57945 | 37974 ft | 407 kts | 252° |
| 2026-05-07 11:13 | 42.66314 | -82.65162 | 37968 ft | 407 kts | 251° |
| 2026-05-07 11:14 | 42.64334 | -82.72388 | 37961 ft | 406 kts | 251° |
| 2026-05-07 11:14 | 42.62352 | -82.79635 | 37965 ft | 406 kts | 251° |
| 2026-05-07 11:15 | 42.60395 | -82.86817 | 37964 ft | 406 kts | 252° |
| 2026-05-07 11:15 | 42.58434 | -82.94017 | 37966 ft | 406 kts | 252° |
| 2026-05-07 11:16 | 42.56480 | -83.01208 | 37967 ft | 405 kts | 252° |
| 2026-05-07 11:16 | 42.54512 | -83.08465 | 37973 ft | 405 kts | 252° |
| 2026-05-07 11:17 | 42.52567 | -83.15657 | 37975 ft | 404 kts | 252° |
| 2026-05-07 11:17 | 42.50632 | -83.22832 | 37978 ft | 405 kts | 252° |
| 2026-05-07 11:18 | 42.48690 | -83.30049 | 37972 ft | 405 kts | 252° |
| 2026-05-07 11:18 | 42.46772 | -83.37193 | 37967 ft | 405 kts | 252° |
| 2026-05-07 11:19 | 42.44846 | -83.44389 | 37976 ft | 405 kts | 252° |
| 2026-05-07 11:19 | 42.42908 | -83.51601 | 37967 ft | 405 kts | 251° |
| 2026-05-07 11:20 | 42.40310 | -83.58427 | 37971 ft | 412 kts | 240° |
| 2026-05-07 11:20 | 42.36567 | -83.64423 | 37973 ft | 421 kts | 229° |
| 2026-05-07 11:21 | 42.31957 | -83.69588 | 37977 ft | 423 kts | 226° |
| 2026-05-07 11:21 | 42.27436 | -83.74638 | 37979 ft | 421 kts | 227° |
| 2026-05-07 11:22 | 42.22909 | -83.79737 | 37969 ft | 421 kts | 227° |
| 2026-05-07 11:22 | 42.18368 | -83.84864 | 37975 ft | 422 kts | 227° |
| 2026-05-07 11:23 | 42.13848 | -83.89972 | 37978 ft | 422 kts | 227° |
| 2026-05-07 11:23 | 42.09324 | -83.95084 | 37992 ft | 421 kts | 227° |
| 2026-05-07 11:24 | 42.04829 | -84.00163 | 38003 ft | 419 kts | 227° |
| 2026-05-07 11:24 | 42.00346 | -84.05232 | 37994 ft | 419 kts | 227° |
| 2026-05-07 11:25 | 41.95863 | -84.10307 | 38011 ft | 419 kts | 227° |
| 2026-05-07 11:25 | 41.91399 | -84.15363 | 38016 ft | 417 kts | 227° |
| 2026-05-07 11:26 | 41.86938 | -84.20413 | 38000 ft | 416 kts | 227° |
| 2026-05-07 11:26 | 41.82492 | -84.25455 | 38007 ft | 416 kts | 228° |
| 2026-05-07 11:27 | 41.78074 | -84.30465 | 38011 ft | 415 kts | 228° |
| 2026-05-07 11:27 | 41.73650 | -84.35485 | 38010 ft | 414 kts | 228° |
| 2026-05-07 11:28 | 41.69224 | -84.40446 | 38007 ft | 414 kts | 227° |
| 2026-05-07 11:28 | 41.64716 | -84.45366 | 38013 ft | 413 kts | 227° |
| 2026-05-07 11:29 | 41.60263 | -84.50257 | 38009 ft | 412 kts | 227° |
| 2026-05-07 11:29 | 41.55819 | -84.55137 | 38011 ft | 412 kts | 228° |
| 2026-05-07 11:30 | 41.51379 | -84.60021 | 38017 ft | 412 kts | 228° |
| 2026-05-07 11:30 | 41.46962 | -84.64879 | 38008 ft | 411 kts | 228° |
| 2026-05-07 11:31 | 41.42520 | -84.69769 | 38017 ft | 410 kts | 227° |
| 2026-05-07 11:31 | 41.38092 | -84.74646 | 38020 ft | 409 kts | 227° |
| 2026-05-07 11:32 | 41.31500 | -84.81908 | 38024 ft | 409 kts | 228° |
| 2026-05-07 11:33 | 41.27084 | -84.86776 | 38012 ft | 409 kts | 227° |
| 2026-05-07 11:33 | 41.22677 | -84.91632 | 38012 ft | 408 kts | 228° |
| 2026-05-07 11:34 | 41.18276 | -84.96492 | 38027 ft | 408 kts | 228° |
| 2026-05-07 11:34 | 41.13876 | -85.01349 | 38026 ft | 407 kts | 228° |
| 2026-05-07 11:35 | 41.09507 | -85.06177 | 38047 ft | 406 kts | 228° |
| 2026-05-07 11:35 | 41.05133 | -85.10971 | 38030 ft | 406 kts | 227° |
| 2026-05-07 11:36 | 41.00757 | -85.15704 | 38029 ft | 405 kts | 227° |
| 2026-05-07 11:36 | 40.96361 | -85.20441 | 38027 ft | 407 kts | 226° |
| 2026-05-07 11:37 | 40.91836 | -85.25010 | 38026 ft | 406 kts | 226° |
| 2026-05-07 11:37 | 40.87345 | -85.29563 | 38030 ft | 404 kts | 226° |
| 2026-05-07 11:38 | 40.82801 | -85.34187 | 38040 ft | 403 kts | 226° |
| 2026-05-07 11:38 | 40.78351 | -85.38730 | 38030 ft | 404 kts | 227° |
| 2026-05-07 11:39 | 40.73895 | -85.43278 | 38035 ft | 402 kts | 227° |
| 2026-05-07 11:39 | 40.69452 | -85.47810 | 38033 ft | 402 kts | 226° |
| 2026-05-07 11:40 | 40.65035 | -85.52315 | 38033 ft | 402 kts | 227° |
| 2026-05-07 11:40 | 40.60578 | -85.56866 | 38035 ft | 400 kts | 226° |
| 2026-05-07 11:41 | 40.56165 | -85.61377 | 38037 ft | 398 kts | 227° |
| 2026-05-07 11:41 | 40.51762 | -85.65868 | 38045 ft | 399 kts | 226° |
| 2026-05-07 11:42 | 40.47356 | -85.70375 | 38029 ft | 399 kts | 227° |
| 2026-05-07 11:42 | 40.42992 | -85.74841 | 38036 ft | 398 kts | 227° |
| 2026-05-07 11:43 | 40.38847 | -85.79079 | 38037 ft | 397 kts | 227° |
| 2026-05-07 11:43 | 40.34496 | -85.83536 | 38036 ft | 397 kts | 227° |
| 2026-05-07 11:44 | 40.30118 | -85.87999 | 38014 ft | 397 kts | 226° |
| 2026-05-07 11:44 | 40.25682 | -85.92398 | 38030 ft | 397 kts | 227° |
| 2026-05-07 11:45 | 40.21304 | -85.96774 | 38030 ft | 396 kts | 226° |
| 2026-05-07 11:45 | 40.16918 | -86.01152 | 38030 ft | 394 kts | 226° |
| 2026-05-07 11:46 | 40.12523 | -86.05538 | 38026 ft | 395 kts | 227° |
| 2026-05-07 11:46 | 40.08143 | -86.09914 | 38040 ft | 393 kts | 227° |
| 2026-05-07 11:47 | 40.03798 | -86.14254 | 38034 ft | 391 kts | 227° |
| 2026-05-07 11:47 | 39.99463 | -86.18597 | 38043 ft | 391 kts | 227° |
| 2026-05-07 11:48 | 39.95148 | -86.22906 | 38056 ft | 391 kts | 227° |
| 2026-05-07 11:48 | 39.90834 | -86.27231 | 38049 ft | 389 kts | 227° |
| 2026-05-07 11:49 | 39.86512 | -86.31564 | 38046 ft | 389 kts | 227° |
| 2026-05-07 11:49 | 39.82202 | -86.35774 | 38064 ft | 390 kts | 225° |
| 2026-05-07 11:50 | 39.77599 | -86.39655 | 38050 ft | 395 kts | 222° |
| 2026-05-07 11:50 | 39.72862 | -86.43249 | 38064 ft | 395 kts | 221° |
| 2026-05-07 11:51 | 39.68092 | -86.46839 | 38054 ft | 395 kts | 222° |
| 2026-05-07 11:51 | 39.63342 | -86.50405 | 38058 ft | 394 kts | 221° |
| 2026-05-07 11:52 | 39.58583 | -86.53974 | 38068 ft | 393 kts | 222° |
| 2026-05-07 11:52 | 39.53855 | -86.57523 | 38058 ft | 391 kts | 222° |
| 2026-05-07 11:53 | 39.49139 | -86.61053 | 38070 ft | 390 kts | 222° |
| 2026-05-07 11:53 | 39.44441 | -86.64575 | 38068 ft | 389 kts | 222° |
| 2026-05-07 11:54 | 39.39729 | -86.68110 | 38074 ft | 390 kts | 222° |
| 2026-05-07 11:54 | 39.35014 | -86.71661 | 38079 ft | 389 kts | 222° |
| 2026-05-07 11:55 | 39.30344 | -86.75159 | 38074 ft | 387 kts | 222° |
| 2026-05-07 11:55 | 39.25671 | -86.78667 | 38078 ft | 386 kts | 223° |
| 2026-05-07 11:56 | 39.21017 | -86.82162 | 38079 ft | 387 kts | 223° |
| 2026-05-07 11:56 | 39.16347 | -86.85677 | 38086 ft | 386 kts | 222° |
| 2026-05-07 11:57 | 39.11695 | -86.89167 | 38078 ft | 385 kts | 223° |
| 2026-05-07 11:57 | 39.07088 | -86.92629 | 38076 ft | 383 kts | 222° |
| 2026-05-07 11:58 | 39.02487 | -86.96088 | 38075 ft | 381 kts | 222° |
| 2026-05-07 11:58 | 38.97841 | -86.99479 | 38075 ft | 380 kts | 222° |
| 2026-05-07 11:59 | 38.93340 | -87.02767 | 38081 ft | 380 kts | 222° |
| 2026-05-07 11:59 | 38.88704 | -87.06157 | 38065 ft | 380 kts | 223° |
| 2026-05-07 12:00 | 38.84022 | -87.09584 | 38077 ft | 381 kts | 223° |
| 2026-05-07 12:00 | 38.79421 | -87.12959 | 38083 ft | 379 kts | 223° |
| 2026-05-07 12:01 | 38.74840 | -87.16309 | 38087 ft | 377 kts | 223° |
| 2026-05-07 12:01 | 38.70303 | -87.19634 | 38076 ft | 377 kts | 223° |
| 2026-05-07 12:02 | 38.65725 | -87.22993 | 38080 ft | 378 kts | 223° |
| 2026-05-07 12:02 | 38.61158 | -87.26343 | 38085 ft | 376 kts | 223° |
| 2026-05-07 12:03 | 38.56651 | -87.29638 | 38074 ft | 373 kts | 223° |
| 2026-05-07 12:03 | 38.52125 | -87.32970 | 38080 ft | 374 kts | 223° |
| 2026-05-07 12:04 | 38.47610 | -87.36265 | 38085 ft | 373 kts | 224° |
| 2026-05-07 12:04 | 38.43111 | -87.39571 | 38082 ft | 372 kts | 224° |
| 2026-05-07 12:05 | 38.38631 | -87.42866 | 38084 ft | 370 kts | 223° |
| 2026-05-07 12:05 | 38.34161 | -87.46144 | 38082 ft | 369 kts | 223° |
| 2026-05-07 12:06 | 38.29716 | -87.49390 | 38087 ft | 370 kts | 223° |
| 2026-05-07 12:06 | 38.25207 | -87.52630 | 38077 ft | 370 kts | 223° |
| 2026-05-07 12:07 | 38.20705 | -87.55871 | 38085 ft | 369 kts | 224° |
| 2026-05-07 12:07 | 38.16222 | -87.59102 | 38083 ft | 370 kts | 223° |
| 2026-05-07 12:08 | 38.11735 | -87.62337 | 38074 ft | 369 kts | 224° |
| 2026-05-07 12:08 | 38.07261 | -87.65562 | 38081 ft | 366 kts | 223° |
| 2026-05-07 12:09 | 38.02790 | -87.68790 | 38079 ft | 367 kts | 223° |
| 2026-05-07 12:09 | 37.98312 | -87.72015 | 38083 ft | 367 kts | 224° |
| 2026-05-07 12:10 | 37.93909 | -87.75315 | 38087 ft | 366 kts | 223° |
| 2026-05-07 12:10 | 37.89375 | -87.78349 | 38084 ft | 373 kts | 221° |
| 2026-05-07 12:11 | 37.84633 | -87.81253 | 38073 ft | 375 kts | 220° |
| 2026-05-07 12:11 | 37.79929 | -87.84129 | 38071 ft | 375 kts | 221° |
| 2026-05-07 12:12 | 37.75214 | -87.87013 | 38067 ft | 376 kts | 220° |
| 2026-05-07 12:12 | 37.70473 | -87.89912 | 38010 ft | 375 kts | 220° |
| 2026-05-07 12:13 | 37.65778 | -87.92780 | 38072 ft | 374 kts | 220° |
| 2026-05-07 12:13 | 37.61099 | -87.95642 | 38072 ft | 374 kts | 221° |
| 2026-05-07 12:14 | 37.56366 | -87.98507 | 38063 ft | 376 kts | 220° |
| 2026-05-07 12:14 | 37.51643 | -88.01354 | 38060 ft | 374 kts | 220° |
| 2026-05-07 12:15 | 37.46941 | -88.04192 | 38071 ft | 375 kts | 220° |
| 2026-05-07 12:15 | 37.42235 | -88.07034 | 38066 ft | 375 kts | 220° |
| 2026-05-07 12:16 | 37.37492 | -88.09900 | 38068 ft | 375 kts | 220° |
| 2026-05-07 12:16 | 37.32793 | -88.12737 | 38070 ft | 375 kts | 220° |
| 2026-05-07 12:17 | 37.28073 | -88.15588 | 38065 ft | 376 kts | 220° |
| 2026-05-07 12:17 | 37.23349 | -88.18440 | 38070 ft | 376 kts | 220° |
| 2026-05-07 12:18 | 37.18614 | -88.21300 | 38069 ft | 375 kts | 220° |
| 2026-05-07 12:18 | 37.13929 | -88.24137 | 38079 ft | 374 kts | 220° |
| 2026-05-07 12:19 | 37.09252 | -88.26967 | 38070 ft | 372 kts | 220° |
| 2026-05-07 12:19 | 37.04540 | -88.29797 | 38076 ft | 374 kts | 220° |
| 2026-05-07 12:20 | 36.99793 | -88.32584 | 38072 ft | 375 kts | 220° |
| 2026-05-07 12:20 | 36.95054 | -88.35379 | 38067 ft | 376 kts | 220° |
| 2026-05-07 12:21 | 36.90311 | -88.38211 | 38064 ft | 376 kts | 220° |
| 2026-05-07 12:21 | 36.85518 | -88.41092 | 38070 ft | 375 kts | 221° |
| 2026-05-07 12:22 | 36.80807 | -88.43936 | 38065 ft | 374 kts | 221° |
| 2026-05-07 12:22 | 36.76071 | -88.46800 | 38061 ft | 375 kts | 221° |
| 2026-05-07 12:23 | 36.73092 | -88.48594 | 38071 ft | 376 kts | 220° |
| 2026-05-07 12:23 | 36.68385 | -88.51461 | 38074 ft | 377 kts | 221° |
| 2026-05-07 12:24 | 36.63671 | -88.54345 | 38072 ft | 376 kts | 221° |
| 2026-05-07 12:24 | 36.58962 | -88.57218 | 38076 ft | 377 kts | 221° |
| 2026-05-07 12:25 | 36.54461 | -88.59973 | 38041 ft | 378 kts | 221° |
| 2026-05-07 12:25 | 36.52087 | -88.61438 | 37612 ft | 377 kts | 221° |
| 2026-05-07 12:25 | 36.49747 | -88.62897 | 37097 ft | 375 kts | 221° |
| 2026-05-07 12:25 | 36.47413 | -88.64356 | 36559 ft | 372 kts | 221° |
| 2026-05-07 12:26 | 36.45059 | -88.65841 | 36023 ft | 372 kts | 220° |
| 2026-05-07 12:26 | 36.42717 | -88.67316 | 35460 ft | 373 kts | 220° |
| 2026-05-07 12:26 | 36.40376 | -88.68794 | 34884 ft | 374 kts | 220° |
| 2026-05-07 12:26 | 36.38075 | -88.70268 | 34298 ft | 374 kts | 220° |
| 2026-05-07 12:27 | 36.35763 | -88.71777 | 33689 ft | 374 kts | 220° |
| 2026-05-07 12:27 | 36.33463 | -88.73298 | 33164 ft | 375 kts | 220° |
| 2026-05-07 12:27 | 36.31150 | -88.74835 | 32908 ft | 376 kts | 220° |
| 2026-05-07 12:28 | 36.26533 | -88.77912 | 32673 ft | 373 kts | 220° |
| 2026-05-07 12:28 | 36.24229 | -88.79439 | 32050 ft | 370 kts | 220° |
| 2026-05-07 12:28 | 36.21950 | -88.80872 | 31542 ft | 371 kts | 219° |
| 2026-05-07 12:28 | 36.19617 | -88.82245 | 31036 ft | 371 kts | 218° |
| 2026-05-07 12:29 | 36.17247 | -88.83580 | 30441 ft | 370 kts | 217° |
| 2026-05-07 12:29 | 36.14913 | -88.84863 | 29637 ft | 370 kts | 216° |
| 2026-05-07 12:29 | 36.12565 | -88.86126 | 28939 ft | 367 kts | 216° |
| 2026-05-07 12:29 | 36.10216 | -88.87386 | 28232 ft | 363 kts | 216° |
| 2026-05-07 12:30 | 36.07902 | -88.88611 | 27473 ft | 362 kts | 216° |
| 2026-05-07 12:30 | 36.05611 | -88.89827 | 26753 ft | 359 kts | 216° |
| 2026-05-07 12:30 | 36.03315 | -88.91044 | 26042 ft | 356 kts | 216° |
| 2026-05-07 12:30 | 36.01021 | -88.92248 | 25751 ft | 351 kts | 216° |
| 2026-05-07 12:31 | 35.98769 | -88.93441 | 25700 ft | 352 kts | 216° |
| 2026-05-07 12:31 | 35.96509 | -88.94639 | 25505 ft | 353 kts | 215° |
| 2026-05-07 12:31 | 35.94258 | -88.95826 | 25125 ft | 350 kts | 215° |
| 2026-05-07 12:31 | 35.92017 | -88.97003 | 24647 ft | 345 kts | 215° |
| 2026-05-07 12:32 | 35.89807 | -88.98170 | 24146 ft | 341 kts | 215° |
| 2026-05-07 12:32 | 35.87530 | -88.99374 | 23592 ft | 338 kts | 215° |
| 2026-05-07 12:32 | 35.85349 | -89.00525 | 22879 ft | 338 kts | 214° |
| 2026-05-07 12:32 | 35.83205 | -89.01660 | 22247 ft | 336 kts | 214° |
| 2026-05-07 12:33 | 35.78903 | -89.03928 | 20935 ft | 334 kts | 214° |
| 2026-05-07 12:33 | 35.76779 | -89.05051 | 20268 ft | 332 kts | 214° |
| 2026-05-07 12:33 | 35.74721 | -89.06306 | 19610 ft | 325 kts | 219° |
| 2026-05-07 12:34 | 35.72854 | -89.07772 | 19057 ft | 316 kts | 224° |
| 2026-05-07 12:34 | 35.71174 | -89.09476 | 18334 ft | 311 kts | 231° |
| 2026-05-07 12:34 | 35.69669 | -89.11390 | 17709 ft | 308 kts | 233° |
| 2026-05-07 12:34 | 35.68206 | -89.13283 | 17102 ft | 306 kts | 232° |
| 2026-05-07 12:35 | 35.66732 | -89.15197 | 16600 ft | 307 kts | 232° |
| 2026-05-07 12:35 | 35.65250 | -89.17113 | 16052 ft | 309 kts | 232° |
| 2026-05-07 12:35 | 35.63781 | -89.19013 | 15443 ft | 311 kts | 232° |
| 2026-05-07 12:35 | 35.62275 | -89.20959 | 14947 ft | 308 kts | 232° |
| 2026-05-07 12:36 | 35.60810 | -89.22854 | 14436 ft | 307 kts | 233° |
| 2026-05-07 12:36 | 35.59386 | -89.24807 | 13891 ft | 305 kts | 236° |
| 2026-05-07 12:36 | 35.58050 | -89.26807 | 13372 ft | 304 kts | 236° |
| 2026-05-07 12:36 | 35.56725 | -89.28804 | 12872 ft | 302 kts | 236° |
| 2026-05-07 12:37 | 35.55386 | -89.30816 | 12440 ft | 302 kts | 236° |
| 2026-05-07 12:37 | 35.54064 | -89.32795 | 12026 ft | 298 kts | 236° |
| 2026-05-07 12:37 | 35.52776 | -89.34719 | 11809 ft | 286 kts | 236° |
| 2026-05-07 12:37 | 35.51539 | -89.36561 | 11771 ft | 273 kts | 236° |
| 2026-05-07 12:38 | 35.50347 | -89.38337 | 11748 ft | 264 kts | 237° |
| 2026-05-07 12:38 | 35.49180 | -89.40086 | 11547 ft | 261 kts | 234° |
| 2026-05-07 12:38 | 35.47899 | -89.41663 | 11224 ft | 258 kts | 229° |
| 2026-05-07 12:38 | 35.46445 | -89.42944 | 10917 ft | 256 kts | 217° |
| 2026-05-07 12:39 | 35.44989 | -89.44090 | 10652 ft | 250 kts | 218° |
| 2026-05-07 12:39 | 35.43520 | -89.45249 | 10376 ft | 246 kts | 229° |
| 2026-05-07 12:39 | 35.42275 | -89.46697 | 10089 ft | 246 kts | 231° |
| 2026-05-07 12:39 | 35.41032 | -89.48144 | 9765 ft | 247 kts | 229° |
| 2026-05-07 12:40 | 35.39755 | -89.49563 | 9453 ft | 247 kts | 228° |
| 2026-05-07 12:40 | 35.38465 | -89.50958 | 9128 ft | 247 kts | 227° |
| 2026-05-07 12:40 | 35.37162 | -89.52350 | 8800 ft | 248 kts | 226° |
| 2026-05-07 12:40 | 35.35861 | -89.53724 | 8480 ft | 248 kts | 226° |
| 2026-05-07 12:41 | 35.34549 | -89.55107 | 8155 ft | 247 kts | 226° |
| 2026-05-07 12:41 | 35.33255 | -89.56465 | 7835 ft | 242 kts | 226° |
| 2026-05-07 12:41 | 35.31992 | -89.57793 | 7533 ft | 236 kts | 225° |
| 2026-05-07 12:41 | 35.30777 | -89.59068 | 7292 ft | 228 kts | 225° |
| 2026-05-07 12:42 | 35.29570 | -89.60338 | 7085 ft | 227 kts | 225° |
| 2026-05-07 12:42 | 35.28367 | -89.61604 | 6805 ft | 229 kts | 225° |
| 2026-05-07 12:42 | 35.27156 | -89.62881 | 6505 ft | 229 kts | 225° |
| 2026-05-07 12:42 | 35.25943 | -89.64156 | 6208 ft | 228 kts | 225° |
| 2026-05-07 12:43 | 35.24745 | -89.65414 | 5923 ft | 220 kts | 224° |
| 2026-05-07 12:43 | 35.23572 | -89.66648 | 5695 ft | 222 kts | 224° |
| 2026-05-07 12:43 | 35.22368 | -89.67919 | 5426 ft | 231 kts | 223° |
| 2026-05-07 12:43 | 35.21150 | -89.69199 | 5094 ft | 227 kts | 223° |
| 2026-05-07 12:44 | 35.19979 | -89.70430 | 4785 ft | 219 kts | 223° |
| 2026-05-07 12:44 | 35.18836 | -89.71629 | 4525 ft | 212 kts | 223° |
| 2026-05-07 12:44 | 35.17718 | -89.72807 | 4331 ft | 211 kts | 223° |
| 2026-05-07 12:44 | 35.16601 | -89.73988 | 4126 ft | 212 kts | 223° |
| 2026-05-07 12:45 | 35.15483 | -89.75167 | 3868 ft | 211 kts | 223° |
| 2026-05-07 12:45 | 35.14401 | -89.76305 | 3615 ft | 198 kts | 222° |
| 2026-05-07 12:45 | 35.13383 | -89.77374 | 3461 ft | 188 kts | 222° |
| 2026-05-07 12:45 | 35.12406 | -89.78403 | 3357 ft | 181 kts | 222° |
| 2026-05-07 12:46 | 35.11443 | -89.79414 | 3254 ft | 182 kts | 222° |
| 2026-05-07 12:46 | 35.10486 | -89.80422 | 3045 ft | 181 kts | 222° |
| 2026-05-07 12:46 | 35.09528 | -89.81432 | 2829 ft | 181 kts | 222° |
| 2026-05-07 12:46 | 35.08580 | -89.82431 | 2585 ft | 179 kts | 222° |
| 2026-05-07 12:47 | 35.07643 | -89.83424 | 2361 ft | 178 kts | 222° |
| 2026-05-07 12:47 | 35.06721 | -89.84415 | 2152 ft | 177 kts | 223° |
| 2026-05-07 12:47 | 35.05913 | -89.85538 | 1966 ft | 174 kts | 243° |
| 2026-05-07 12:47 | 35.05521 | -89.86912 | 1818 ft | 170 kts | 267° |
| 2026-05-07 12:48 | 35.05480 | -89.88359 | 1583 ft | 169 kts | 276° |
| 2026-05-07 12:48 | 35.05555 | -89.89795 | 1337 ft | 166 kts | 279° |
| 2026-05-07 12:48 | 35.05661 | -89.91195 | 1062 ft | 163 kts | 277° |
| 2026-05-07 12:48 | 35.05689 | -89.92567 | 883 ft | 161 kts | 274° |
| 2026-05-07 12:49 | 35.05722 | -89.93916 | 673 ft | 159 kts | 275° |
| 2026-05-07 12:49 | 35.05766 | -89.95258 | 431 ft | 158 kts | 274° |
| 2026-05-07 12:49 | 35.05809 | -89.96545 | 347 ft | 128 kts | 272° |
| 2026-05-07 12:49 | 35.05828 | -89.97375 | 347 ft | 71 kts | 272° |
| 2026-05-07 12:50 | 35.05840 | -89.97794 | 347 ft | 31 kts | 272° |
| 2026-05-07 12:50 | 35.05882 | -89.98048 | 347 ft | 23 kts | 294° |
| 2026-05-07 12:50 | 35.05937 | -89.98155 | 347 ft | 9 kts | 315° |
| 2026-05-07 12:50 | 35.05999 | -89.98164 | 347 ft | 10 kts | 46° |
| 2026-05-07 12:51 | 35.06014 | -89.98067 | 347 ft | 12 kts | 91° |
| 2026-05-07 12:51 | 35.06010 | -89.97948 | 347 ft | 14 kts | 92° |
| 2026-05-07 12:51 | 35.06004 | -89.97814 | 347 ft | 16 kts | 96° |
| 2026-05-07 12:51 | 35.05979 | -89.97669 | 347 ft | 18 kts | 104° |
| 2026-05-07 12:52 | 35.05946 | -89.97509 | 347 ft | 20 kts | 102° |
| 2026-05-07 12:52 | 35.05936 | -89.97330 | 347 ft | 21 kts | 91° |
| 2026-05-07 12:52 | 35.05932 | -89.97141 | 347 ft | 23 kts | 92° |
| 2026-05-07 12:52 | 35.05926 | -89.96942 | 347 ft | 24 kts | 93° |
| 2026-05-07 12:53 | 35.05919 | -89.96736 | 347 ft | 21 kts | 91° |
| 2026-05-07 12:53 | 35.05924 | -89.96589 | 347 ft | 15 kts | 66° |
| 2026-05-07 12:53 | 35.06004 | -89.96500 | 347 ft | 15 kts | 36° |
| 2026-05-07 12:53 | 35.06045 | -89.96397 | 347 ft | 14 kts | 91° |
| 2026-05-07 12:54 | 35.06041 | -89.96291 | 347 ft | 8 kts | 92° |
| 2026-05-07 12:54 | 35.06053 | -89.96247 | 347 ft | 5 kts | 26° |
| 2026-05-07 12:54 | 35.06084 | -89.96242 | 347 ft | 3 kts | 1° |
| 2026-05-07 12:54 | 35.06100 | -89.96242 | 347 ft | 1 kts | 2° |
| 2026-05-07 12:55 | 35.06101 | -89.96242 | 347 ft | 0 kts | 1° |